<?xml version="1.0" encoding="UTF-8" standalone="no" ?><gpx xmlns="http://www.topografix.com/GPX/1/1" xmlns:gpxx="http://www.garmin.com/xmlschemas/GpxExtensions/v3" xmlns:gpxtpx="http://www.garmin.com/xmlschemas/TrackPointExtension/v1" creator="Foretrex 301" version="1.1" xmlns:xsi="http://www.w3.org/2001/XMLSchema-instance" xsi:schemaLocation="http://www.topografix.com/GPX/1/1 http://www.topografix.com/GPX/1/1/gpx.xsd http://www.garmin.com/xmlschemas/GpxExtensions/v3 http://www.garmin.com/xmlschemas/GpxExtensions/v3/GpxExtensionsv3.xsd"><metadata><link href="http://www.garmin.com"><text>Garmin International</text></link><time>2011-09-28T17:22:16Z</time></metadata><trk><name>ACTIVE LOG: 28 SEP 2011 09:19</name><trkseg><trkpt lat="51.854222" lon="-1.711407"><ele>165.00</ele><time>2011-09-28T09:19:13Z</time></trkpt><trkpt lat="51.854210" lon="-1.711377"><ele>165.96</ele><time>2011-09-28T09:20:59Z</time></trkpt><trkpt lat="51.854208" lon="-1.711360"><ele>167.89</ele><time>2011-09-28T09:25:07Z</time></trkpt><trkpt lat="51.854226" lon="-1.711353"><ele>167.89</ele><time>2011-09-28T09:25:29Z</time></trkpt><trkpt lat="51.854248" lon="-1.711322"><ele>167.89</ele><time>2011-09-28T09:25:35Z</time></trkpt><trkpt lat="51.854247" lon="-1.711207"><ele>168.85</ele><time>2011-09-28T09:25:43Z</time></trkpt><trkpt lat="51.854215" lon="-1.711148"><ele>169.33</ele><time>2011-09-28T09:25:49Z</time></trkpt><trkpt lat="51.854159" lon="-1.711043"><ele>169.33</ele><time>2011-09-28T09:25:58Z</time></trkpt><trkpt lat="51.854126" lon="-1.710945"><ele>171.25</ele><time>2011-09-28T09:26:06Z</time></trkpt><trkpt lat="51.854124" lon="-1.710934"><ele>171.25</ele><time>2011-09-28T09:26:07Z</time></trkpt><trkpt lat="51.854110" lon="-1.710890"><ele>171.73</ele><time>2011-09-28T09:26:11Z</time></trkpt><trkpt lat="51.854094" lon="-1.710782"><ele>172.21</ele><time>2011-09-28T09:26:20Z</time></trkpt><trkpt lat="51.854088" lon="-1.710692"><ele>173.66</ele><time>2011-09-28T09:26:29Z</time></trkpt><trkpt lat="51.854084" lon="-1.710606"><ele>174.14</ele><time>2011-09-28T09:26:37Z</time></trkpt><trkpt lat="51.854072" lon="-1.710528"><ele>174.14</ele><time>2011-09-28T09:26:42Z</time></trkpt><trkpt lat="51.854105" lon="-1.710387"><ele>176.06</ele><time>2011-09-28T09:26:52Z</time></trkpt><trkpt lat="51.854119" lon="-1.710317"><ele>176.54</ele><time>2011-09-28T09:26:57Z</time></trkpt><trkpt lat="51.854120" lon="-1.710171"><ele>176.06</ele><time>2011-09-28T09:27:06Z</time></trkpt><trkpt lat="51.854118" lon="-1.710062"><ele>175.58</ele><time>2011-09-28T09:27:13Z</time></trkpt><trkpt lat="51.854117" lon="-1.709967"><ele>176.06</ele><time>2011-09-28T09:27:19Z</time></trkpt><trkpt lat="51.854127" lon="-1.709813"><ele>176.06</ele><time>2011-09-28T09:27:27Z</time></trkpt><trkpt lat="51.854128" lon="-1.709715"><ele>176.54</ele><time>2011-09-28T09:27:33Z</time></trkpt><trkpt lat="51.854130" lon="-1.709655"><ele>177.02</ele><time>2011-09-28T09:27:37Z</time></trkpt><trkpt lat="51.854132" lon="-1.709611"><ele>177.50</ele><time>2011-09-28T09:27:40Z</time></trkpt><trkpt lat="51.854136" lon="-1.709578"><ele>177.50</ele><time>2011-09-28T09:27:42Z</time></trkpt><trkpt lat="51.854141" lon="-1.709542"><ele>177.98</ele><time>2011-09-28T09:27:44Z</time></trkpt><trkpt lat="51.854128" lon="-1.709422"><ele>180.38</ele><time>2011-09-28T09:27:52Z</time></trkpt><trkpt lat="51.854126" lon="-1.709336"><ele>181.35</ele><time>2011-09-28T09:27:58Z</time></trkpt><trkpt lat="51.854125" lon="-1.709185"><ele>182.31</ele><time>2011-09-28T09:28:07Z</time></trkpt><trkpt lat="51.854125" lon="-1.709169"><ele>182.31</ele><time>2011-09-28T09:28:08Z</time></trkpt><trkpt lat="51.854119" lon="-1.709123"><ele>182.31</ele><time>2011-09-28T09:28:11Z</time></trkpt><trkpt lat="51.854107" lon="-1.709027"><ele>182.31</ele><time>2011-09-28T09:28:18Z</time></trkpt><trkpt lat="51.854094" lon="-1.708907"><ele>182.79</ele><time>2011-09-28T09:28:26Z</time></trkpt><trkpt lat="51.854098" lon="-1.708749"><ele>184.23</ele><time>2011-09-28T09:28:35Z</time></trkpt><trkpt lat="51.854095" lon="-1.708611"><ele>186.15</ele><time>2011-09-28T09:28:43Z</time></trkpt><trkpt lat="51.854093" lon="-1.708491"><ele>187.11</ele><time>2011-09-28T09:28:51Z</time></trkpt><trkpt lat="51.854090" lon="-1.708356"><ele>188.08</ele><time>2011-09-28T09:29:00Z</time></trkpt><trkpt lat="51.854090" lon="-1.708245"><ele>189.04</ele><time>2011-09-28T09:29:08Z</time></trkpt><trkpt lat="51.854084" lon="-1.708123"><ele>189.52</ele><time>2011-09-28T09:29:16Z</time></trkpt><trkpt lat="51.854068" lon="-1.707997"><ele>190.00</ele><time>2011-09-28T09:29:24Z</time></trkpt><trkpt lat="51.854063" lon="-1.707876"><ele>190.00</ele><time>2011-09-28T09:29:32Z</time></trkpt><trkpt lat="51.854056" lon="-1.707705"><ele>190.96</ele><time>2011-09-28T09:29:42Z</time></trkpt><trkpt lat="51.854035" lon="-1.707557"><ele>190.96</ele><time>2011-09-28T09:29:51Z</time></trkpt><trkpt lat="51.854022" lon="-1.707450"><ele>191.44</ele><time>2011-09-28T09:29:57Z</time></trkpt><trkpt lat="51.854008" lon="-1.707296"><ele>191.44</ele><time>2011-09-28T09:30:06Z</time></trkpt><trkpt lat="51.853999" lon="-1.707136"><ele>191.44</ele><time>2011-09-28T09:30:15Z</time></trkpt><trkpt lat="51.853993" lon="-1.706969"><ele>191.92</ele><time>2011-09-28T09:30:25Z</time></trkpt><trkpt lat="51.853992" lon="-1.706812"><ele>192.40</ele><time>2011-09-28T09:30:35Z</time></trkpt><trkpt lat="51.853976" lon="-1.706653"><ele>192.40</ele><time>2011-09-28T09:30:45Z</time></trkpt><trkpt lat="51.853964" lon="-1.706500"><ele>192.88</ele><time>2011-09-28T09:30:55Z</time></trkpt><trkpt lat="51.853957" lon="-1.706332"><ele>192.88</ele><time>2011-09-28T09:31:05Z</time></trkpt><trkpt lat="51.853951" lon="-1.706177"><ele>193.36</ele><time>2011-09-28T09:31:14Z</time></trkpt><trkpt lat="51.853935" lon="-1.706050"><ele>193.36</ele><time>2011-09-28T09:31:22Z</time></trkpt><trkpt lat="51.853922" lon="-1.705861"><ele>193.84</ele><time>2011-09-28T09:31:33Z</time></trkpt><trkpt lat="51.853913" lon="-1.705687"><ele>194.32</ele><time>2011-09-28T09:31:43Z</time></trkpt><trkpt lat="51.853899" lon="-1.705483"><ele>194.80</ele><time>2011-09-28T09:31:55Z</time></trkpt><trkpt lat="51.853886" lon="-1.705347"><ele>194.80</ele><time>2011-09-28T09:32:03Z</time></trkpt><trkpt lat="51.853880" lon="-1.705225"><ele>194.80</ele><time>2011-09-28T09:32:10Z</time></trkpt><trkpt lat="51.853853" lon="-1.705063"><ele>194.80</ele><time>2011-09-28T09:32:19Z</time></trkpt><trkpt lat="51.853841" lon="-1.704892"><ele>195.28</ele><time>2011-09-28T09:32:29Z</time></trkpt><trkpt lat="51.853832" lon="-1.704695"><ele>194.80</ele><time>2011-09-28T09:32:40Z</time></trkpt><trkpt lat="51.853820" lon="-1.704520"><ele>194.80</ele><time>2011-09-28T09:32:50Z</time></trkpt><trkpt lat="51.853806" lon="-1.704325"><ele>194.80</ele><time>2011-09-28T09:33:01Z</time></trkpt><trkpt lat="51.853790" lon="-1.704097"><ele>194.80</ele><time>2011-09-28T09:33:14Z</time></trkpt><trkpt lat="51.853771" lon="-1.703866"><ele>195.28</ele><time>2011-09-28T09:33:26Z</time></trkpt><trkpt lat="51.853766" lon="-1.703672"><ele>195.28</ele><time>2011-09-28T09:33:37Z</time></trkpt><trkpt lat="51.853764" lon="-1.703544"><ele>195.28</ele><time>2011-09-28T09:33:45Z</time></trkpt><trkpt lat="51.853761" lon="-1.703362"><ele>195.28</ele><time>2011-09-28T09:33:55Z</time></trkpt><trkpt lat="51.853747" lon="-1.703145"><ele>195.28</ele><time>2011-09-28T09:34:07Z</time></trkpt><trkpt lat="51.853742" lon="-1.702953"><ele>195.28</ele><time>2011-09-28T09:34:18Z</time></trkpt><trkpt lat="51.853733" lon="-1.702792"><ele>195.28</ele><time>2011-09-28T09:34:27Z</time></trkpt><trkpt lat="51.853732" lon="-1.702776"><ele>195.28</ele><time>2011-09-28T09:34:28Z</time></trkpt><trkpt lat="51.853757" lon="-1.702620"><ele>194.80</ele><time>2011-09-28T09:34:38Z</time></trkpt><trkpt lat="51.853759" lon="-1.702470"><ele>194.80</ele><time>2011-09-28T09:34:47Z</time></trkpt><trkpt lat="51.853765" lon="-1.702401"><ele>194.32</ele><time>2011-09-28T09:34:54Z</time></trkpt><trkpt lat="51.853787" lon="-1.702383"><ele>194.32</ele><time>2011-09-28T09:35:01Z</time></trkpt><trkpt lat="51.853807" lon="-1.702381"><ele>194.32</ele><time>2011-09-28T09:35:05Z</time></trkpt><trkpt lat="51.853855" lon="-1.702358"><ele>193.36</ele><time>2011-09-28T09:35:15Z</time></trkpt><trkpt lat="51.853874" lon="-1.702337"><ele>193.36</ele><time>2011-09-28T09:35:21Z</time></trkpt><trkpt lat="51.853937" lon="-1.702357"><ele>192.88</ele><time>2011-09-28T09:35:29Z</time></trkpt><trkpt lat="51.853989" lon="-1.702353"><ele>192.88</ele><time>2011-09-28T09:35:35Z</time></trkpt><trkpt lat="51.854064" lon="-1.702352"><ele>192.40</ele><time>2011-09-28T09:35:43Z</time></trkpt><trkpt lat="51.854148" lon="-1.702344"><ele>192.40</ele><time>2011-09-28T09:35:52Z</time></trkpt><trkpt lat="51.854252" lon="-1.702329"><ele>192.40</ele><time>2011-09-28T09:36:03Z</time></trkpt><trkpt lat="51.854349" lon="-1.702315"><ele>191.92</ele><time>2011-09-28T09:36:13Z</time></trkpt><trkpt lat="51.854461" lon="-1.702310"><ele>191.44</ele><time>2011-09-28T09:36:24Z</time></trkpt><trkpt lat="51.854567" lon="-1.702293"><ele>190.48</ele><time>2011-09-28T09:36:34Z</time></trkpt><trkpt lat="51.854690" lon="-1.702273"><ele>190.00</ele><time>2011-09-28T09:36:45Z</time></trkpt><trkpt lat="51.854833" lon="-1.702268"><ele>189.52</ele><time>2011-09-28T09:36:58Z</time></trkpt><trkpt lat="51.854939" lon="-1.702256"><ele>189.52</ele><time>2011-09-28T09:37:08Z</time></trkpt><trkpt lat="51.855068" lon="-1.702250"><ele>190.96</ele><time>2011-09-28T09:37:20Z</time></trkpt><trkpt lat="51.855091" lon="-1.702245"><ele>191.44</ele><time>2011-09-28T09:37:22Z</time></trkpt><trkpt lat="51.855134" lon="-1.702257"><ele>190.96</ele><time>2011-09-28T09:37:26Z</time></trkpt><trkpt lat="51.855252" lon="-1.702269"><ele>191.44</ele><time>2011-09-28T09:37:38Z</time></trkpt><trkpt lat="51.855352" lon="-1.702280"><ele>191.44</ele><time>2011-09-28T09:37:48Z</time></trkpt><trkpt lat="51.855428" lon="-1.702299"><ele>192.40</ele><time>2011-09-28T09:37:57Z</time></trkpt><trkpt lat="51.855538" lon="-1.702312"><ele>192.88</ele><time>2011-09-28T09:38:09Z</time></trkpt><trkpt lat="51.855623" lon="-1.702315"><ele>193.36</ele><time>2011-09-28T09:38:18Z</time></trkpt><trkpt lat="51.855711" lon="-1.702313"><ele>193.36</ele><time>2011-09-28T09:38:28Z</time></trkpt><trkpt lat="51.855737" lon="-1.702329"><ele>194.32</ele><time>2011-09-28T09:38:40Z</time></trkpt><trkpt lat="51.855763" lon="-1.702306"><ele>193.84</ele><time>2011-09-28T09:38:51Z</time></trkpt><trkpt lat="51.855770" lon="-1.702290"><ele>193.84</ele><time>2011-09-28T09:39:00Z</time></trkpt><trkpt lat="51.855771" lon="-1.702321"><ele>193.36</ele><time>2011-09-28T09:39:07Z</time></trkpt><trkpt lat="51.855828" lon="-1.702331"><ele>193.36</ele><time>2011-09-28T09:39:14Z</time></trkpt><trkpt lat="51.855908" lon="-1.702324"><ele>193.84</ele><time>2011-09-28T09:39:22Z</time></trkpt><trkpt lat="51.855987" lon="-1.702322"><ele>194.32</ele><time>2011-09-28T09:39:30Z</time></trkpt><trkpt lat="51.856089" lon="-1.702331"><ele>195.28</ele><time>2011-09-28T09:39:40Z</time></trkpt><trkpt lat="51.856177" lon="-1.702317"><ele>195.77</ele><time>2011-09-28T09:39:48Z</time></trkpt><trkpt lat="51.856293" lon="-1.702301"><ele>195.77</ele><time>2011-09-28T09:39:59Z</time></trkpt><trkpt lat="51.856421" lon="-1.702285"><ele>196.25</ele><time>2011-09-28T09:40:11Z</time></trkpt><trkpt lat="51.856502" lon="-1.702307"><ele>196.73</ele><time>2011-09-28T09:40:21Z</time></trkpt><trkpt lat="51.856496" lon="-1.702330"><ele>196.73</ele><time>2011-09-28T09:40:31Z</time></trkpt><trkpt lat="51.856497" lon="-1.702342"><ele>196.73</ele><time>2011-09-28T09:40:32Z</time></trkpt><trkpt lat="51.856489" lon="-1.702485"><ele>196.25</ele><time>2011-09-28T09:40:42Z</time></trkpt><trkpt lat="51.856482" lon="-1.702586"><ele>196.73</ele><time>2011-09-28T09:40:49Z</time></trkpt><trkpt lat="51.856478" lon="-1.702632"><ele>196.25</ele><time>2011-09-28T09:41:02Z</time></trkpt><trkpt lat="51.856476" lon="-1.702726"><ele>194.32</ele><time>2011-09-28T09:41:22Z</time></trkpt><trkpt lat="51.856468" lon="-1.702948"><ele>195.28</ele><time>2011-09-28T09:41:32Z</time></trkpt><trkpt lat="51.856452" lon="-1.703173"><ele>196.25</ele><time>2011-09-28T09:41:43Z</time></trkpt><trkpt lat="51.856442" lon="-1.703416"><ele>197.21</ele><time>2011-09-28T09:41:54Z</time></trkpt><trkpt lat="51.856418" lon="-1.703702"><ele>197.69</ele><time>2011-09-28T09:42:08Z</time></trkpt><trkpt lat="51.856393" lon="-1.704001"><ele>198.17</ele><time>2011-09-28T09:42:23Z</time></trkpt><trkpt lat="51.856371" lon="-1.704308"><ele>198.17</ele><time>2011-09-28T09:42:38Z</time></trkpt><trkpt lat="51.856368" lon="-1.704367"><ele>197.69</ele><time>2011-09-28T09:42:50Z</time></trkpt><trkpt lat="51.856341" lon="-1.704674"><ele>197.21</ele><time>2011-09-28T09:43:04Z</time></trkpt><trkpt lat="51.856322" lon="-1.704936"><ele>197.21</ele><time>2011-09-28T09:43:17Z</time></trkpt><trkpt lat="51.856301" lon="-1.705255"><ele>196.73</ele><time>2011-09-28T09:43:33Z</time></trkpt><trkpt lat="51.856278" lon="-1.705550"><ele>197.21</ele><time>2011-09-28T09:43:48Z</time></trkpt><trkpt lat="51.856259" lon="-1.705810"><ele>196.73</ele><time>2011-09-28T09:44:01Z</time></trkpt><trkpt lat="51.856238" lon="-1.706067"><ele>196.25</ele><time>2011-09-28T09:44:14Z</time></trkpt><trkpt lat="51.856202" lon="-1.706361"><ele>196.25</ele><time>2011-09-28T09:44:29Z</time></trkpt><trkpt lat="51.856158" lon="-1.706484"><ele>195.77</ele><time>2011-09-28T09:44:39Z</time></trkpt><trkpt lat="51.856156" lon="-1.706498"><ele>195.77</ele><time>2011-09-28T09:44:46Z</time></trkpt><trkpt lat="51.856169" lon="-1.706471"><ele>194.80</ele><time>2011-09-28T09:44:53Z</time></trkpt><trkpt lat="51.856164" lon="-1.706490"><ele>193.84</ele><time>2011-09-28T09:45:16Z</time></trkpt><trkpt lat="51.856144" lon="-1.706619"><ele>191.92</ele><time>2011-09-28T09:45:24Z</time></trkpt><trkpt lat="51.856119" lon="-1.706899"><ele>190.48</ele><time>2011-09-28T09:45:36Z</time></trkpt><trkpt lat="51.856107" lon="-1.707181"><ele>189.04</ele><time>2011-09-28T09:45:49Z</time></trkpt><trkpt lat="51.856076" lon="-1.707473"><ele>188.08</ele><time>2011-09-28T09:46:03Z</time></trkpt><trkpt lat="51.856052" lon="-1.707756"><ele>188.08</ele><time>2011-09-28T09:46:16Z</time></trkpt><trkpt lat="51.856031" lon="-1.708048"><ele>187.59</ele><time>2011-09-28T09:46:30Z</time></trkpt><trkpt lat="51.856015" lon="-1.708247"><ele>186.63</ele><time>2011-09-28T09:46:40Z</time></trkpt><trkpt lat="51.855998" lon="-1.708441"><ele>187.11</ele><time>2011-09-28T09:46:49Z</time></trkpt><trkpt lat="51.855997" lon="-1.708718"><ele>185.67</ele><time>2011-09-28T09:47:02Z</time></trkpt><trkpt lat="51.855983" lon="-1.708909"><ele>184.71</ele><time>2011-09-28T09:47:13Z</time></trkpt><trkpt lat="51.855978" lon="-1.708913"><ele>184.71</ele><time>2011-09-28T09:47:26Z</time></trkpt><trkpt lat="51.855980" lon="-1.708904"><ele>184.23</ele><time>2011-09-28T09:47:36Z</time></trkpt><trkpt lat="51.855979" lon="-1.708897"><ele>184.23</ele><time>2011-09-28T09:47:43Z</time></trkpt><trkpt lat="51.855982" lon="-1.708888"><ele>183.75</ele><time>2011-09-28T09:47:48Z</time></trkpt><trkpt lat="51.855999" lon="-1.708902"><ele>183.27</ele><time>2011-09-28T09:47:51Z</time></trkpt><trkpt lat="51.856067" lon="-1.709035"><ele>181.83</ele><time>2011-09-28T09:48:00Z</time></trkpt><trkpt lat="51.856123" lon="-1.709111"><ele>181.83</ele><time>2011-09-28T09:48:05Z</time></trkpt><trkpt lat="51.856189" lon="-1.709275"><ele>181.35</ele><time>2011-09-28T09:48:14Z</time></trkpt><trkpt lat="51.856200" lon="-1.709326"><ele>181.35</ele><time>2011-09-28T09:48:17Z</time></trkpt><trkpt lat="51.856246" lon="-1.709430"><ele>178.94</ele><time>2011-09-28T09:48:23Z</time></trkpt><trkpt lat="51.856340" lon="-1.709515"><ele>177.02</ele><time>2011-09-28T09:48:32Z</time></trkpt><trkpt lat="51.856363" lon="-1.709492"><ele>175.58</ele><time>2011-09-28T09:48:38Z</time></trkpt><trkpt lat="51.856406" lon="-1.709524"><ele>174.14</ele><time>2011-09-28T09:48:47Z</time></trkpt><trkpt lat="51.856412" lon="-1.709571"><ele>174.62</ele><time>2011-09-28T09:48:50Z</time></trkpt><trkpt lat="51.856371" lon="-1.709816"><ele>175.58</ele><time>2011-09-28T09:49:03Z</time></trkpt><trkpt lat="51.856352" lon="-1.710003"><ele>174.62</ele><time>2011-09-28T09:49:13Z</time></trkpt><trkpt lat="51.856267" lon="-1.710155"><ele>173.17</ele><time>2011-09-28T09:49:25Z</time></trkpt><trkpt lat="51.856141" lon="-1.710271"><ele>171.73</ele><time>2011-09-28T09:49:37Z</time></trkpt><trkpt lat="51.856041" lon="-1.710367"><ele>170.29</ele><time>2011-09-28T09:49:46Z</time></trkpt><trkpt lat="51.856020" lon="-1.710432"><ele>170.29</ele><time>2011-09-28T09:49:53Z</time></trkpt><trkpt lat="51.856002" lon="-1.710484"><ele>169.81</ele><time>2011-09-28T09:50:01Z</time></trkpt><trkpt lat="51.855986" lon="-1.710544"><ele>169.81</ele><time>2011-09-28T09:50:10Z</time></trkpt><trkpt lat="51.855987" lon="-1.710545"><ele>169.81</ele><time>2011-09-28T09:50:13Z</time></trkpt><trkpt lat="51.855972" lon="-1.710679"><ele>170.29</ele><time>2011-09-28T09:50:23Z</time></trkpt><trkpt lat="51.855943" lon="-1.710716"><ele>170.29</ele><time>2011-09-28T09:50:27Z</time></trkpt><trkpt lat="51.855892" lon="-1.710876"><ele>167.89</ele><time>2011-09-28T09:50:39Z</time></trkpt><trkpt lat="51.855851" lon="-1.710983"><ele>166.93</ele><time>2011-09-28T09:50:48Z</time></trkpt><trkpt lat="51.855857" lon="-1.711048"><ele>167.41</ele><time>2011-09-28T09:51:05Z</time></trkpt><trkpt lat="51.855861" lon="-1.711074"><ele>167.41</ele><time>2011-09-28T09:51:17Z</time></trkpt><trkpt lat="51.855866" lon="-1.711110"><ele>167.41</ele><time>2011-09-28T09:51:29Z</time></trkpt><trkpt lat="51.855814" lon="-1.711149"><ele>166.93</ele><time>2011-09-28T09:51:35Z</time></trkpt><trkpt lat="51.855717" lon="-1.711294"><ele>166.45</ele><time>2011-09-28T09:51:46Z</time></trkpt><trkpt lat="51.855607" lon="-1.711419"><ele>166.45</ele><time>2011-09-28T09:51:58Z</time></trkpt><trkpt lat="51.855584" lon="-1.711406"><ele>166.45</ele><time>2011-09-28T09:52:06Z</time></trkpt><trkpt lat="51.855566" lon="-1.711367"><ele>165.96</ele><time>2011-09-28T09:52:12Z</time></trkpt><trkpt lat="51.855565" lon="-1.711354"><ele>164.04</ele><time>2011-09-28T09:52:21Z</time></trkpt><trkpt lat="51.855560" lon="-1.711365"><ele>163.08</ele><time>2011-09-28T09:52:30Z</time></trkpt><trkpt lat="51.855561" lon="-1.711363"><ele>162.60</ele><time>2011-09-28T09:52:35Z</time></trkpt><trkpt lat="51.855562" lon="-1.711454"><ele>162.60</ele><time>2011-09-28T09:52:43Z</time></trkpt><trkpt lat="51.855559" lon="-1.711461"><ele>162.12</ele><time>2011-09-28T09:52:46Z</time></trkpt><trkpt lat="51.855437" lon="-1.711574"><ele>159.72</ele><time>2011-09-28T09:52:58Z</time></trkpt><trkpt lat="51.855349" lon="-1.711609"><ele>158.75</ele><time>2011-09-28T09:53:05Z</time></trkpt><trkpt lat="51.855254" lon="-1.711659"><ele>158.27</ele><time>2011-09-28T09:53:14Z</time></trkpt><trkpt lat="51.855157" lon="-1.711686"><ele>156.83</ele><time>2011-09-28T09:53:23Z</time></trkpt><trkpt lat="51.855057" lon="-1.711728"><ele>154.91</ele><time>2011-09-28T09:53:33Z</time></trkpt><trkpt lat="51.854944" lon="-1.711718"><ele>153.95</ele><time>2011-09-28T09:53:43Z</time></trkpt><trkpt lat="51.854853" lon="-1.711694"><ele>156.83</ele><time>2011-09-28T09:53:51Z</time></trkpt><trkpt lat="51.854784" lon="-1.711672"><ele>157.79</ele><time>2011-09-28T09:53:58Z</time></trkpt><trkpt lat="51.854749" lon="-1.711656"><ele>158.27</ele><time>2011-09-28T09:54:01Z</time></trkpt><trkpt lat="51.854706" lon="-1.711700"><ele>157.79</ele><time>2011-09-28T09:54:06Z</time></trkpt><trkpt lat="51.854743" lon="-1.711843"><ele>157.79</ele><time>2011-09-28T09:54:16Z</time></trkpt><trkpt lat="51.854819" lon="-1.712029"><ele>160.20</ele><time>2011-09-28T09:54:26Z</time></trkpt><trkpt lat="51.854837" lon="-1.712115"><ele>160.20</ele><time>2011-09-28T09:54:30Z</time></trkpt><trkpt lat="51.854852" lon="-1.712170"><ele>159.72</ele><time>2011-09-28T09:54:33Z</time></trkpt><trkpt lat="51.854891" lon="-1.712298"><ele>157.31</ele><time>2011-09-28T09:54:42Z</time></trkpt><trkpt lat="51.854949" lon="-1.712502"><ele>154.43</ele><time>2011-09-28T09:54:55Z</time></trkpt><trkpt lat="51.854959" lon="-1.712587"><ele>154.43</ele><time>2011-09-28T09:55:00Z</time></trkpt><trkpt lat="51.854952" lon="-1.712704"><ele>153.95</ele><time>2011-09-28T09:55:08Z</time></trkpt><trkpt lat="51.854981" lon="-1.712771"><ele>151.06</ele><time>2011-09-28T09:55:14Z</time></trkpt><trkpt lat="51.855010" lon="-1.712892"><ele>147.70</ele><time>2011-09-28T09:55:24Z</time></trkpt><trkpt lat="51.855054" lon="-1.713055"><ele>142.41</ele><time>2011-09-28T09:55:37Z</time></trkpt><trkpt lat="51.855121" lon="-1.713242"><ele>140.49</ele><time>2011-09-28T09:55:49Z</time></trkpt><trkpt lat="51.855165" lon="-1.713355"><ele>140.01</ele><time>2011-09-28T09:55:56Z</time></trkpt><trkpt lat="51.855137" lon="-1.713439"><ele>137.61</ele><time>2011-09-28T09:56:03Z</time></trkpt><trkpt lat="51.855125" lon="-1.713460"><ele>137.61</ele><time>2011-09-28T09:56:05Z</time></trkpt><trkpt lat="51.855043" lon="-1.713498"><ele>136.16</ele><time>2011-09-28T09:56:13Z</time></trkpt><trkpt lat="51.854954" lon="-1.713475"><ele>136.16</ele><time>2011-09-28T09:56:22Z</time></trkpt><trkpt lat="51.854913" lon="-1.713457"><ele>138.09</ele><time>2011-09-28T09:56:29Z</time></trkpt><trkpt lat="51.854844" lon="-1.713434"><ele>140.49</ele><time>2011-09-28T09:56:37Z</time></trkpt><trkpt lat="51.854773" lon="-1.713439"><ele>142.89</ele><time>2011-09-28T09:56:47Z</time></trkpt><trkpt lat="51.854666" lon="-1.713458"><ele>144.82</ele><time>2011-09-28T09:56:56Z</time></trkpt><trkpt lat="51.854574" lon="-1.713470"><ele>145.30</ele><time>2011-09-28T09:57:04Z</time></trkpt><trkpt lat="51.854465" lon="-1.713493"><ele>147.22</ele><time>2011-09-28T09:57:15Z</time></trkpt><trkpt lat="51.854357" lon="-1.713502"><ele>147.22</ele><time>2011-09-28T09:57:23Z</time></trkpt><trkpt lat="51.854269" lon="-1.713505"><ele>147.22</ele><time>2011-09-28T09:57:32Z</time></trkpt><trkpt lat="51.854172" lon="-1.713564"><ele>145.30</ele><time>2011-09-28T09:57:40Z</time></trkpt><trkpt lat="51.854160" lon="-1.713577"><ele>144.34</ele><time>2011-09-28T09:57:41Z</time></trkpt><trkpt lat="51.854114" lon="-1.713759"><ele>140.01</ele><time>2011-09-28T09:57:51Z</time></trkpt><trkpt lat="51.854102" lon="-1.713870"><ele>139.05</ele><time>2011-09-28T09:57:59Z</time></trkpt><trkpt lat="51.854057" lon="-1.713879"><ele>137.13</ele><time>2011-09-28T09:58:14Z</time></trkpt><trkpt lat="51.854046" lon="-1.714082"><ele>137.13</ele><time>2011-09-28T09:58:26Z</time></trkpt><trkpt lat="51.854024" lon="-1.714219"><ele>139.05</ele><time>2011-09-28T09:58:36Z</time></trkpt><trkpt lat="51.853971" lon="-1.714383"><ele>140.01</ele><time>2011-09-28T09:58:47Z</time></trkpt><trkpt lat="51.853899" lon="-1.714512"><ele>140.49</ele><time>2011-09-28T09:58:57Z</time></trkpt><trkpt lat="51.853815" lon="-1.714582"><ele>140.97</ele><time>2011-09-28T09:59:06Z</time></trkpt><trkpt lat="51.853705" lon="-1.714623"><ele>140.97</ele><time>2011-09-28T09:59:17Z</time></trkpt><trkpt lat="51.853602" lon="-1.714637"><ele>140.97</ele><time>2011-09-28T09:59:27Z</time></trkpt><trkpt lat="51.853592" lon="-1.714639"><ele>140.97</ele><time>2011-09-28T09:59:28Z</time></trkpt><trkpt lat="51.853515" lon="-1.714622"><ele>137.61</ele><time>2011-09-28T09:59:37Z</time></trkpt><trkpt lat="51.853507" lon="-1.714651"><ele>136.16</ele><time>2011-09-28T09:59:46Z</time></trkpt><trkpt lat="51.853494" lon="-1.714645"><ele>136.16</ele><time>2011-09-28T09:59:54Z</time></trkpt><trkpt lat="51.853488" lon="-1.714643"><ele>136.64</ele><time>2011-09-28T09:59:55Z</time></trkpt><trkpt lat="51.853363" lon="-1.714625"><ele>139.05</ele><time>2011-09-28T10:00:05Z</time></trkpt><trkpt lat="51.853261" lon="-1.714668"><ele>142.41</ele><time>2011-09-28T10:00:14Z</time></trkpt><trkpt lat="51.853212" lon="-1.714708"><ele>143.37</ele><time>2011-09-28T10:00:19Z</time></trkpt><trkpt lat="51.853171" lon="-1.714761"><ele>143.85</ele><time>2011-09-28T10:00:27Z</time></trkpt><trkpt lat="51.853140" lon="-1.714796"><ele>141.93</ele><time>2011-09-28T10:00:39Z</time></trkpt><trkpt lat="51.853097" lon="-1.714876"><ele>141.45</ele><time>2011-09-28T10:00:45Z</time></trkpt><trkpt lat="51.853074" lon="-1.714939"><ele>142.89</ele><time>2011-09-28T10:00:49Z</time></trkpt><trkpt lat="51.852996" lon="-1.715142"><ele>142.89</ele><time>2011-09-28T10:01:01Z</time></trkpt><trkpt lat="51.852977" lon="-1.715226"><ele>143.85</ele><time>2011-09-28T10:01:08Z</time></trkpt><trkpt lat="51.852964" lon="-1.715319"><ele>147.22</ele><time>2011-09-28T10:01:22Z</time></trkpt><trkpt lat="51.852877" lon="-1.715479"><ele>146.74</ele><time>2011-09-28T10:01:32Z</time></trkpt><trkpt lat="51.852749" lon="-1.715746"><ele>142.89</ele><time>2011-09-28T10:01:48Z</time></trkpt><trkpt lat="51.852658" lon="-1.715904"><ele>138.57</ele><time>2011-09-28T10:01:58Z</time></trkpt><trkpt lat="51.852577" lon="-1.716077"><ele>135.20</ele><time>2011-09-28T10:02:08Z</time></trkpt><trkpt lat="51.852536" lon="-1.716264"><ele>134.72</ele><time>2011-09-28T10:02:16Z</time></trkpt><trkpt lat="51.852474" lon="-1.716485"><ele>134.72</ele><time>2011-09-28T10:02:27Z</time></trkpt><trkpt lat="51.852436" lon="-1.716683"><ele>133.28</ele><time>2011-09-28T10:02:38Z</time></trkpt><trkpt lat="51.852417" lon="-1.716917"><ele>133.76</ele><time>2011-09-28T10:02:49Z</time></trkpt><trkpt lat="51.852389" lon="-1.717152"><ele>135.20</ele><time>2011-09-28T10:03:00Z</time></trkpt><trkpt lat="51.852406" lon="-1.717341"><ele>136.64</ele><time>2011-09-28T10:03:10Z</time></trkpt><trkpt lat="51.852416" lon="-1.717424"><ele>138.09</ele><time>2011-09-28T10:03:19Z</time></trkpt><trkpt lat="51.852418" lon="-1.717429"><ele>140.49</ele><time>2011-09-28T10:03:36Z</time></trkpt><trkpt lat="51.852418" lon="-1.717439"><ele>140.97</ele><time>2011-09-28T10:03:45Z</time></trkpt><trkpt lat="51.852447" lon="-1.717498"><ele>143.37</ele><time>2011-09-28T10:04:21Z</time></trkpt><trkpt lat="51.852454" lon="-1.717590"><ele>142.89</ele><time>2011-09-28T10:04:31Z</time></trkpt><trkpt lat="51.852466" lon="-1.717614"><ele>142.41</ele><time>2011-09-28T10:04:42Z</time></trkpt><trkpt lat="51.852476" lon="-1.717647"><ele>142.89</ele><time>2011-09-28T10:04:50Z</time></trkpt><trkpt lat="51.852473" lon="-1.717722"><ele>143.85</ele><time>2011-09-28T10:04:57Z</time></trkpt><trkpt lat="51.852485" lon="-1.717887"><ele>142.41</ele><time>2011-09-28T10:05:07Z</time></trkpt><trkpt lat="51.852504" lon="-1.718021"><ele>141.45</ele><time>2011-09-28T10:05:16Z</time></trkpt><trkpt lat="51.852524" lon="-1.718126"><ele>140.01</ele><time>2011-09-28T10:05:27Z</time></trkpt><trkpt lat="51.852538" lon="-1.718167"><ele>138.57</ele><time>2011-09-28T10:05:39Z</time></trkpt><trkpt lat="51.852565" lon="-1.718211"><ele>137.61</ele><time>2011-09-28T10:05:47Z</time></trkpt><trkpt lat="51.852593" lon="-1.718172"><ele>137.61</ele><time>2011-09-28T10:06:01Z</time></trkpt><trkpt lat="51.852643" lon="-1.718201"><ele>137.13</ele><time>2011-09-28T10:06:34Z</time></trkpt><trkpt lat="51.852604" lon="-1.718140"><ele>136.64</ele><time>2011-09-28T10:06:44Z</time></trkpt><trkpt lat="51.852593" lon="-1.718109"><ele>135.68</ele><time>2011-09-28T10:06:47Z</time></trkpt><trkpt lat="51.852584" lon="-1.718016"><ele>134.24</ele><time>2011-09-28T10:06:54Z</time></trkpt><trkpt lat="51.852577" lon="-1.717951"><ele>133.76</ele><time>2011-09-28T10:06:59Z</time></trkpt><trkpt lat="51.852571" lon="-1.717802"><ele>134.24</ele><time>2011-09-28T10:07:08Z</time></trkpt><trkpt lat="51.852561" lon="-1.717672"><ele>135.20</ele><time>2011-09-28T10:07:17Z</time></trkpt><trkpt lat="51.852541" lon="-1.717636"><ele>135.20</ele><time>2011-09-28T10:07:23Z</time></trkpt><trkpt lat="51.852527" lon="-1.717627"><ele>135.68</ele><time>2011-09-28T10:07:41Z</time></trkpt><trkpt lat="51.852508" lon="-1.717633"><ele>136.16</ele><time>2011-09-28T10:08:06Z</time></trkpt><trkpt lat="51.852508" lon="-1.717633"><ele>136.16</ele><time>2011-09-28T10:09:05Z</time></trkpt><trkpt lat="51.852526" lon="-1.717679"><ele>142.41</ele><time>2011-09-28T10:12:54Z</time></trkpt><trkpt lat="51.852526" lon="-1.717702"><ele>144.34</ele><time>2011-09-28T10:14:13Z</time></trkpt><trkpt lat="51.852508" lon="-1.717693"><ele>147.22</ele><time>2011-09-28T10:14:28Z</time></trkpt><trkpt lat="51.852522" lon="-1.717682"><ele>147.70</ele><time>2011-09-28T10:17:19Z</time></trkpt><trkpt lat="51.852507" lon="-1.717688"><ele>149.14</ele><time>2011-09-28T10:17:52Z</time></trkpt><trkpt lat="51.852503" lon="-1.717690"><ele>148.66</ele><time>2011-09-28T10:21:19Z</time></trkpt><trkpt lat="51.852488" lon="-1.717605"><ele>147.22</ele><time>2011-09-28T10:22:16Z</time></trkpt><trkpt lat="51.852487" lon="-1.717562"><ele>146.74</ele><time>2011-09-28T10:22:19Z</time></trkpt><trkpt lat="51.852435" lon="-1.717385"><ele>145.78</ele><time>2011-09-28T10:22:28Z</time></trkpt><trkpt lat="51.852345" lon="-1.717329"><ele>146.74</ele><time>2011-09-28T10:22:36Z</time></trkpt><trkpt lat="51.852267" lon="-1.717332"><ele>145.30</ele><time>2011-09-28T10:22:43Z</time></trkpt><trkpt lat="51.852173" lon="-1.717331"><ele>144.82</ele><time>2011-09-28T10:22:51Z</time></trkpt><trkpt lat="51.852084" lon="-1.717347"><ele>143.85</ele><time>2011-09-28T10:22:58Z</time></trkpt><trkpt lat="51.851943" lon="-1.717366"><ele>142.89</ele><time>2011-09-28T10:23:08Z</time></trkpt><trkpt lat="51.851834" lon="-1.717390"><ele>142.89</ele><time>2011-09-28T10:23:17Z</time></trkpt><trkpt lat="51.851688" lon="-1.717386"><ele>143.37</ele><time>2011-09-28T10:23:26Z</time></trkpt><trkpt lat="51.851530" lon="-1.717417"><ele>143.37</ele><time>2011-09-28T10:23:37Z</time></trkpt><trkpt lat="51.851448" lon="-1.717448"><ele>143.37</ele><time>2011-09-28T10:23:43Z</time></trkpt><trkpt lat="51.851352" lon="-1.717603"><ele>143.85</ele><time>2011-09-28T10:23:53Z</time></trkpt><trkpt lat="51.851220" lon="-1.717826"><ele>145.30</ele><time>2011-09-28T10:24:07Z</time></trkpt><trkpt lat="51.851195" lon="-1.717872"><ele>144.82</ele><time>2011-09-28T10:24:10Z</time></trkpt><trkpt lat="51.851146" lon="-1.717967"><ele>145.78</ele><time>2011-09-28T10:24:17Z</time></trkpt><trkpt lat="51.851062" lon="-1.718131"><ele>146.26</ele><time>2011-09-28T10:24:26Z</time></trkpt><trkpt lat="51.851008" lon="-1.718312"><ele>145.78</ele><time>2011-09-28T10:24:36Z</time></trkpt><trkpt lat="51.850999" lon="-1.718326"><ele>145.30</ele><time>2011-09-28T10:24:42Z</time></trkpt><trkpt lat="51.850916" lon="-1.718452"><ele>144.34</ele><time>2011-09-28T10:24:51Z</time></trkpt><trkpt lat="51.850830" lon="-1.718684"><ele>142.41</ele><time>2011-09-28T10:25:03Z</time></trkpt><trkpt lat="51.850750" lon="-1.718878"><ele>141.45</ele><time>2011-09-28T10:25:14Z</time></trkpt><trkpt lat="51.850695" lon="-1.719023"><ele>139.53</ele><time>2011-09-28T10:25:23Z</time></trkpt><trkpt lat="51.850658" lon="-1.719165"><ele>137.13</ele><time>2011-09-28T10:25:30Z</time></trkpt><trkpt lat="51.850636" lon="-1.719284"><ele>136.64</ele><time>2011-09-28T10:25:37Z</time></trkpt><trkpt lat="51.850637" lon="-1.719286"><ele>136.64</ele><time>2011-09-28T10:25:39Z</time></trkpt><trkpt lat="51.850647" lon="-1.719381"><ele>133.28</ele><time>2011-09-28T10:25:47Z</time></trkpt><trkpt lat="51.850645" lon="-1.719496"><ele>130.88</ele><time>2011-09-28T10:25:52Z</time></trkpt><trkpt lat="51.850654" lon="-1.719571"><ele>129.92</ele><time>2011-09-28T10:25:55Z</time></trkpt><trkpt lat="51.850660" lon="-1.719667"><ele>130.40</ele><time>2011-09-28T10:25:59Z</time></trkpt><trkpt lat="51.850643" lon="-1.719844"><ele>132.80</ele><time>2011-09-28T10:26:06Z</time></trkpt><trkpt lat="51.850653" lon="-1.719966"><ele>139.53</ele><time>2011-09-28T10:26:15Z</time></trkpt><trkpt lat="51.850536" lon="-1.720122"><ele>138.57</ele><time>2011-09-28T10:26:25Z</time></trkpt><trkpt lat="51.850368" lon="-1.720354"><ele>139.53</ele><time>2011-09-28T10:26:42Z</time></trkpt><trkpt lat="51.850246" lon="-1.720454"><ele>139.05</ele><time>2011-09-28T10:26:54Z</time></trkpt><trkpt lat="51.850110" lon="-1.720561"><ele>139.05</ele><time>2011-09-28T10:27:07Z</time></trkpt><trkpt lat="51.849971" lon="-1.720681"><ele>139.53</ele><time>2011-09-28T10:27:21Z</time></trkpt><trkpt lat="51.849878" lon="-1.720786"><ele>139.53</ele><time>2011-09-28T10:27:32Z</time></trkpt><trkpt lat="51.849765" lon="-1.720886"><ele>140.01</ele><time>2011-09-28T10:27:43Z</time></trkpt><trkpt lat="51.849647" lon="-1.720996"><ele>139.53</ele><time>2011-09-28T10:27:55Z</time></trkpt><trkpt lat="51.849563" lon="-1.721072"><ele>139.05</ele><time>2011-09-28T10:28:05Z</time></trkpt><trkpt lat="51.849524" lon="-1.721092"><ele>138.09</ele><time>2011-09-28T10:28:15Z</time></trkpt><trkpt lat="51.849379" lon="-1.721247"><ele>138.09</ele><time>2011-09-28T10:28:28Z</time></trkpt><trkpt lat="51.849297" lon="-1.721339"><ele>137.61</ele><time>2011-09-28T10:28:37Z</time></trkpt><trkpt lat="51.849194" lon="-1.721449"><ele>137.13</ele><time>2011-09-28T10:28:49Z</time></trkpt><trkpt lat="51.849125" lon="-1.721520"><ele>135.68</ele><time>2011-09-28T10:28:58Z</time></trkpt><trkpt lat="51.849034" lon="-1.721609"><ele>135.20</ele><time>2011-09-28T10:29:08Z</time></trkpt><trkpt lat="51.848923" lon="-1.721726"><ele>134.24</ele><time>2011-09-28T10:29:20Z</time></trkpt><trkpt lat="51.848819" lon="-1.721811"><ele>131.84</ele><time>2011-09-28T10:29:30Z</time></trkpt><trkpt lat="51.848713" lon="-1.721904"><ele>131.36</ele><time>2011-09-28T10:29:41Z</time></trkpt><trkpt lat="51.848678" lon="-1.721943"><ele>131.36</ele><time>2011-09-28T10:29:45Z</time></trkpt><trkpt lat="51.848626" lon="-1.722003"><ele>129.92</ele><time>2011-09-28T10:29:51Z</time></trkpt><trkpt lat="51.848535" lon="-1.722114"><ele>128.95</ele><time>2011-09-28T10:30:01Z</time></trkpt><trkpt lat="51.848423" lon="-1.722233"><ele>128.47</ele><time>2011-09-28T10:30:13Z</time></trkpt><trkpt lat="51.848297" lon="-1.722350"><ele>127.51</ele><time>2011-09-28T10:30:25Z</time></trkpt><trkpt lat="51.848200" lon="-1.722446"><ele>126.55</ele><time>2011-09-28T10:30:35Z</time></trkpt><trkpt lat="51.848102" lon="-1.722559"><ele>125.59</ele><time>2011-09-28T10:30:46Z</time></trkpt><trkpt lat="51.848002" lon="-1.722676"><ele>125.59</ele><time>2011-09-28T10:30:57Z</time></trkpt><trkpt lat="51.847912" lon="-1.722765"><ele>125.59</ele><time>2011-09-28T10:31:07Z</time></trkpt><trkpt lat="51.847842" lon="-1.722847"><ele>125.59</ele><time>2011-09-28T10:31:15Z</time></trkpt><trkpt lat="51.847752" lon="-1.722930"><ele>125.59</ele><time>2011-09-28T10:31:24Z</time></trkpt><trkpt lat="51.847654" lon="-1.723040"><ele>125.59</ele><time>2011-09-28T10:31:35Z</time></trkpt><trkpt lat="51.847601" lon="-1.723129"><ele>123.19</ele><time>2011-09-28T10:31:44Z</time></trkpt><trkpt lat="51.847524" lon="-1.723236"><ele>120.30</ele><time>2011-09-28T10:31:54Z</time></trkpt><trkpt lat="51.847456" lon="-1.723308"><ele>118.86</ele><time>2011-09-28T10:32:02Z</time></trkpt><trkpt lat="51.847365" lon="-1.723408"><ele>117.90</ele><time>2011-09-28T10:32:12Z</time></trkpt><trkpt lat="51.847324" lon="-1.723442"><ele>117.42</ele><time>2011-09-28T10:32:17Z</time></trkpt><trkpt lat="51.847366" lon="-1.723489"><ele>116.94</ele><time>2011-09-28T10:32:24Z</time></trkpt><trkpt lat="51.847394" lon="-1.723560"><ele>115.50</ele><time>2011-09-28T10:32:31Z</time></trkpt><trkpt lat="51.847394" lon="-1.723662"><ele>115.01</ele><time>2011-09-28T10:32:43Z</time></trkpt><trkpt lat="51.847415" lon="-1.723693"><ele>114.53</ele><time>2011-09-28T10:33:07Z</time></trkpt><trkpt lat="51.847402" lon="-1.723720"><ele>114.53</ele><time>2011-09-28T10:33:32Z</time></trkpt><trkpt lat="51.847410" lon="-1.723635"><ele>112.61</ele><time>2011-09-28T10:33:38Z</time></trkpt><trkpt lat="51.847416" lon="-1.723545"><ele>110.69</ele><time>2011-09-28T10:33:46Z</time></trkpt><trkpt lat="51.847402" lon="-1.723518"><ele>111.65</ele><time>2011-09-28T10:33:53Z</time></trkpt><trkpt lat="51.847397" lon="-1.723528"><ele>109.73</ele><time>2011-09-28T10:34:07Z</time></trkpt><trkpt lat="51.847298" lon="-1.723484"><ele>112.61</ele><time>2011-09-28T10:34:15Z</time></trkpt><trkpt lat="51.847204" lon="-1.723632"><ele>114.05</ele><time>2011-09-28T10:34:23Z</time></trkpt><trkpt lat="51.847193" lon="-1.723712"><ele>114.53</ele><time>2011-09-28T10:34:27Z</time></trkpt><trkpt lat="51.847125" lon="-1.723922"><ele>115.50</ele><time>2011-09-28T10:34:38Z</time></trkpt><trkpt lat="51.847051" lon="-1.724212"><ele>115.50</ele><time>2011-09-28T10:34:52Z</time></trkpt><trkpt lat="51.846998" lon="-1.724391"><ele>115.98</ele><time>2011-09-28T10:35:01Z</time></trkpt><trkpt lat="51.846921" lon="-1.724549"><ele>116.46</ele><time>2011-09-28T10:35:11Z</time></trkpt><trkpt lat="51.846745" lon="-1.724666"><ele>116.94</ele><time>2011-09-28T10:35:24Z</time></trkpt><trkpt lat="51.846582" lon="-1.724816"><ele>115.01</ele><time>2011-09-28T10:35:39Z</time></trkpt><trkpt lat="51.846399" lon="-1.724960"><ele>114.05</ele><time>2011-09-28T10:35:54Z</time></trkpt><trkpt lat="51.846188" lon="-1.725120"><ele>112.61</ele><time>2011-09-28T10:36:11Z</time></trkpt><trkpt lat="51.846052" lon="-1.725233"><ele>111.65</ele><time>2011-09-28T10:36:22Z</time></trkpt><trkpt lat="51.845938" lon="-1.725326"><ele>111.65</ele><time>2011-09-28T10:36:32Z</time></trkpt><trkpt lat="51.845921" lon="-1.725358"><ele>111.17</ele><time>2011-09-28T10:36:38Z</time></trkpt><trkpt lat="51.845926" lon="-1.725362"><ele>110.69</ele><time>2011-09-28T10:36:42Z</time></trkpt><trkpt lat="51.845743" lon="-1.725485"><ele>110.69</ele><time>2011-09-28T10:36:57Z</time></trkpt><trkpt lat="51.845537" lon="-1.725626"><ele>110.69</ele><time>2011-09-28T10:37:13Z</time></trkpt><trkpt lat="51.845300" lon="-1.725775"><ele>110.21</ele><time>2011-09-28T10:37:32Z</time></trkpt><trkpt lat="51.845096" lon="-1.725908"><ele>109.73</ele><time>2011-09-28T10:37:48Z</time></trkpt><trkpt lat="51.844845" lon="-1.726060"><ele>109.25</ele><time>2011-09-28T10:38:08Z</time></trkpt><trkpt lat="51.844726" lon="-1.726149"><ele>108.77</ele><time>2011-09-28T10:38:17Z</time></trkpt><trkpt lat="51.844559" lon="-1.726277"><ele>107.81</ele><time>2011-09-28T10:38:31Z</time></trkpt><trkpt lat="51.844533" lon="-1.726306"><ele>107.32</ele><time>2011-09-28T10:38:37Z</time></trkpt><trkpt lat="51.844526" lon="-1.726313"><ele>107.32</ele><time>2011-09-28T10:38:38Z</time></trkpt><trkpt lat="51.844386" lon="-1.726396"><ele>105.40</ele><time>2011-09-28T10:38:49Z</time></trkpt><trkpt lat="51.844329" lon="-1.726435"><ele>105.88</ele><time>2011-09-28T10:38:56Z</time></trkpt><trkpt lat="51.844316" lon="-1.726451"><ele>105.40</ele><time>2011-09-28T10:39:03Z</time></trkpt><trkpt lat="51.844302" lon="-1.726470"><ele>105.88</ele><time>2011-09-28T10:39:07Z</time></trkpt><trkpt lat="51.844196" lon="-1.726623"><ele>105.40</ele><time>2011-09-28T10:39:18Z</time></trkpt><trkpt lat="51.844100" lon="-1.726794"><ele>105.40</ele><time>2011-09-28T10:39:28Z</time></trkpt><trkpt lat="51.844017" lon="-1.726903"><ele>103.48</ele><time>2011-09-28T10:39:35Z</time></trkpt><trkpt lat="51.843936" lon="-1.727029"><ele>102.52</ele><time>2011-09-28T10:39:44Z</time></trkpt><trkpt lat="51.843868" lon="-1.727118"><ele>102.04</ele><time>2011-09-28T10:39:52Z</time></trkpt><trkpt lat="51.843768" lon="-1.727232"><ele>99.63</ele><time>2011-09-28T10:40:00Z</time></trkpt><trkpt lat="51.843735" lon="-1.727280"><ele>99.15</ele><time>2011-09-28T10:40:03Z</time></trkpt><trkpt lat="51.843665" lon="-1.727389"><ele>98.67</ele><time>2011-09-28T10:40:12Z</time></trkpt><trkpt lat="51.843595" lon="-1.727488"><ele>99.15</ele><time>2011-09-28T10:40:18Z</time></trkpt><trkpt lat="51.843522" lon="-1.727591"><ele>102.04</ele><time>2011-09-28T10:40:25Z</time></trkpt><trkpt lat="51.843470" lon="-1.727639"><ele>103.48</ele><time>2011-09-28T10:40:31Z</time></trkpt><trkpt lat="51.843431" lon="-1.727699"><ele>105.88</ele><time>2011-09-28T10:40:37Z</time></trkpt><trkpt lat="51.843404" lon="-1.727725"><ele>106.36</ele><time>2011-09-28T10:40:49Z</time></trkpt><trkpt lat="51.843321" lon="-1.727688"><ele>104.44</ele><time>2011-09-28T10:40:59Z</time></trkpt><trkpt lat="51.843221" lon="-1.727631"><ele>102.04</ele><time>2011-09-28T10:41:08Z</time></trkpt><trkpt lat="51.843127" lon="-1.727601"><ele>101.08</ele><time>2011-09-28T10:41:17Z</time></trkpt><trkpt lat="51.843019" lon="-1.727562"><ele>100.60</ele><time>2011-09-28T10:41:27Z</time></trkpt><trkpt lat="51.842939" lon="-1.727547"><ele>100.11</ele><time>2011-09-28T10:41:35Z</time></trkpt><trkpt lat="51.842844" lon="-1.727569"><ele>102.04</ele><time>2011-09-28T10:41:43Z</time></trkpt><trkpt lat="51.842766" lon="-1.727583"><ele>104.92</ele><time>2011-09-28T10:41:51Z</time></trkpt><trkpt lat="51.842668" lon="-1.727646"><ele>103.48</ele><time>2011-09-28T10:42:00Z</time></trkpt><trkpt lat="51.842607" lon="-1.727707"><ele>104.44</ele><time>2011-09-28T10:42:08Z</time></trkpt><trkpt lat="51.842543" lon="-1.727786"><ele>103.00</ele><time>2011-09-28T10:42:16Z</time></trkpt><trkpt lat="51.842463" lon="-1.727856"><ele>102.52</ele><time>2011-09-28T10:42:26Z</time></trkpt><trkpt lat="51.842409" lon="-1.727886"><ele>103.00</ele><time>2011-09-28T10:42:34Z</time></trkpt><trkpt lat="51.842320" lon="-1.727904"><ele>103.48</ele><time>2011-09-28T10:42:42Z</time></trkpt><trkpt lat="51.842245" lon="-1.727945"><ele>102.52</ele><time>2011-09-28T10:42:50Z</time></trkpt><trkpt lat="51.842155" lon="-1.727982"><ele>103.48</ele><time>2011-09-28T10:42:59Z</time></trkpt><trkpt lat="51.842057" lon="-1.728022"><ele>103.48</ele><time>2011-09-28T10:43:07Z</time></trkpt><trkpt lat="51.841933" lon="-1.728116"><ele>101.08</ele><time>2011-09-28T10:43:18Z</time></trkpt><trkpt lat="51.841917" lon="-1.728127"><ele>100.60</ele><time>2011-09-28T10:43:20Z</time></trkpt><trkpt lat="51.841936" lon="-1.728247"><ele>99.15</ele><time>2011-09-28T10:43:28Z</time></trkpt><trkpt lat="51.841917" lon="-1.728255"><ele>100.60</ele><time>2011-09-28T10:43:38Z</time></trkpt><trkpt lat="51.841857" lon="-1.728315"><ele>102.52</ele><time>2011-09-28T10:43:46Z</time></trkpt><trkpt lat="51.841833" lon="-1.728332"><ele>103.00</ele><time>2011-09-28T10:44:04Z</time></trkpt><trkpt lat="51.841836" lon="-1.728323"><ele>103.96</ele><time>2011-09-28T10:44:09Z</time></trkpt><trkpt lat="51.841904" lon="-1.728261"><ele>103.96</ele><time>2011-09-28T10:44:14Z</time></trkpt><trkpt lat="51.841892" lon="-1.728122"><ele>101.08</ele><time>2011-09-28T10:44:23Z</time></trkpt><trkpt lat="51.841781" lon="-1.728174"><ele>101.08</ele><time>2011-09-28T10:44:32Z</time></trkpt><trkpt lat="51.841700" lon="-1.728226"><ele>100.60</ele><time>2011-09-28T10:44:40Z</time></trkpt><trkpt lat="51.841672" lon="-1.728236"><ele>100.60</ele><time>2011-09-28T10:44:43Z</time></trkpt><trkpt lat="51.841631" lon="-1.728262"><ele>100.60</ele><time>2011-09-28T10:44:47Z</time></trkpt><trkpt lat="51.841567" lon="-1.728351"><ele>99.15</ele><time>2011-09-28T10:44:57Z</time></trkpt><trkpt lat="51.841492" lon="-1.728398"><ele>99.63</ele><time>2011-09-28T10:45:06Z</time></trkpt><trkpt lat="51.841413" lon="-1.728453"><ele>100.60</ele><time>2011-09-28T10:45:15Z</time></trkpt><trkpt lat="51.841325" lon="-1.728487"><ele>102.04</ele><time>2011-09-28T10:45:22Z</time></trkpt><trkpt lat="51.841257" lon="-1.728429"><ele>103.48</ele><time>2011-09-28T10:45:31Z</time></trkpt><trkpt lat="51.841192" lon="-1.728305"><ele>103.48</ele><time>2011-09-28T10:45:40Z</time></trkpt><trkpt lat="51.841088" lon="-1.728315"><ele>106.36</ele><time>2011-09-28T10:45:49Z</time></trkpt><trkpt lat="51.841006" lon="-1.728319"><ele>108.77</ele><time>2011-09-28T10:45:56Z</time></trkpt><trkpt lat="51.840948" lon="-1.728269"><ele>110.21</ele><time>2011-09-28T10:46:03Z</time></trkpt><trkpt lat="51.840848" lon="-1.728209"><ele>111.65</ele><time>2011-09-28T10:46:14Z</time></trkpt><trkpt lat="51.840800" lon="-1.728157"><ele>112.13</ele><time>2011-09-28T10:46:21Z</time></trkpt><trkpt lat="51.840739" lon="-1.728088"><ele>112.61</ele><time>2011-09-28T10:46:28Z</time></trkpt><trkpt lat="51.840645" lon="-1.728036"><ele>112.61</ele><time>2011-09-28T10:46:37Z</time></trkpt><trkpt lat="51.840540" lon="-1.728003"><ele>114.05</ele><time>2011-09-28T10:46:47Z</time></trkpt><trkpt lat="51.840417" lon="-1.727970"><ele>114.53</ele><time>2011-09-28T10:47:00Z</time></trkpt><trkpt lat="51.840280" lon="-1.727937"><ele>114.53</ele><time>2011-09-28T10:47:10Z</time></trkpt><trkpt lat="51.840200" lon="-1.727877"><ele>114.05</ele><time>2011-09-28T10:47:18Z</time></trkpt><trkpt lat="51.840130" lon="-1.727850"><ele>113.57</ele><time>2011-09-28T10:47:23Z</time></trkpt><trkpt lat="51.839994" lon="-1.727793"><ele>113.57</ele><time>2011-09-28T10:47:32Z</time></trkpt><trkpt lat="51.839912" lon="-1.727754"><ele>112.13</ele><time>2011-09-28T10:47:40Z</time></trkpt><trkpt lat="51.839806" lon="-1.727764"><ele>108.29</ele><time>2011-09-28T10:47:51Z</time></trkpt><trkpt lat="51.839700" lon="-1.727812"><ele>105.88</ele><time>2011-09-28T10:48:03Z</time></trkpt><trkpt lat="51.839628" lon="-1.727850"><ele>103.00</ele><time>2011-09-28T10:48:11Z</time></trkpt><trkpt lat="51.839580" lon="-1.727772"><ele>102.04</ele><time>2011-09-28T10:48:20Z</time></trkpt><trkpt lat="51.839560" lon="-1.727767"><ele>99.63</ele><time>2011-09-28T10:48:45Z</time></trkpt><trkpt lat="51.839437" lon="-1.727624"><ele>99.15</ele><time>2011-09-28T10:48:57Z</time></trkpt><trkpt lat="51.839410" lon="-1.727600"><ele>99.15</ele><time>2011-09-28T10:49:00Z</time></trkpt><trkpt lat="51.839318" lon="-1.727533"><ele>98.19</ele><time>2011-09-28T10:49:08Z</time></trkpt><trkpt lat="51.839247" lon="-1.727526"><ele>97.71</ele><time>2011-09-28T10:49:14Z</time></trkpt><trkpt lat="51.839112" lon="-1.727533"><ele>97.71</ele><time>2011-09-28T10:49:26Z</time></trkpt><trkpt lat="51.839019" lon="-1.727527"><ele>96.75</ele><time>2011-09-28T10:49:35Z</time></trkpt><trkpt lat="51.838955" lon="-1.727484"><ele>96.27</ele><time>2011-09-28T10:49:44Z</time></trkpt><trkpt lat="51.838907" lon="-1.727406"><ele>99.63</ele><time>2011-09-28T10:49:54Z</time></trkpt><trkpt lat="51.838894" lon="-1.727393"><ele>99.63</ele><time>2011-09-28T10:49:56Z</time></trkpt><trkpt lat="51.838802" lon="-1.727328"><ele>101.56</ele><time>2011-09-28T10:50:04Z</time></trkpt><trkpt lat="51.838676" lon="-1.727264"><ele>103.00</ele><time>2011-09-28T10:50:15Z</time></trkpt><trkpt lat="51.838579" lon="-1.727208"><ele>103.48</ele><time>2011-09-28T10:50:24Z</time></trkpt><trkpt lat="51.838489" lon="-1.727154"><ele>103.48</ele><time>2011-09-28T10:50:33Z</time></trkpt><trkpt lat="51.838395" lon="-1.727115"><ele>102.52</ele><time>2011-09-28T10:50:43Z</time></trkpt><trkpt lat="51.838312" lon="-1.727083"><ele>102.52</ele><time>2011-09-28T10:50:51Z</time></trkpt><trkpt lat="51.838179" lon="-1.727016"><ele>103.48</ele><time>2011-09-28T10:51:04Z</time></trkpt><trkpt lat="51.838055" lon="-1.726974"><ele>103.96</ele><time>2011-09-28T10:51:16Z</time></trkpt><trkpt lat="51.837952" lon="-1.726920"><ele>103.96</ele><time>2011-09-28T10:51:27Z</time></trkpt><trkpt lat="51.837826" lon="-1.726841"><ele>103.96</ele><time>2011-09-28T10:51:39Z</time></trkpt><trkpt lat="51.837727" lon="-1.726795"><ele>103.96</ele><time>2011-09-28T10:51:49Z</time></trkpt><trkpt lat="51.837606" lon="-1.726735"><ele>103.48</ele><time>2011-09-28T10:52:01Z</time></trkpt><trkpt lat="51.837504" lon="-1.726698"><ele>101.08</ele><time>2011-09-28T10:52:11Z</time></trkpt><trkpt lat="51.837396" lon="-1.726636"><ele>100.11</ele><time>2011-09-28T10:52:22Z</time></trkpt><trkpt lat="51.837299" lon="-1.726576"><ele>100.11</ele><time>2011-09-28T10:52:32Z</time></trkpt><trkpt lat="51.837173" lon="-1.726500"><ele>104.44</ele><time>2011-09-28T10:52:43Z</time></trkpt><trkpt lat="51.837098" lon="-1.726451"><ele>103.48</ele><time>2011-09-28T10:52:51Z</time></trkpt><trkpt lat="51.837014" lon="-1.726376"><ele>105.88</ele><time>2011-09-28T10:53:00Z</time></trkpt><trkpt lat="51.836910" lon="-1.726289"><ele>107.32</ele><time>2011-09-28T10:53:11Z</time></trkpt><trkpt lat="51.836779" lon="-1.726186"><ele>107.81</ele><time>2011-09-28T10:53:24Z</time></trkpt><trkpt lat="51.836665" lon="-1.726061"><ele>105.40</ele><time>2011-09-28T10:53:36Z</time></trkpt><trkpt lat="51.836564" lon="-1.725995"><ele>104.44</ele><time>2011-09-28T10:53:47Z</time></trkpt><trkpt lat="51.836455" lon="-1.725911"><ele>103.48</ele><time>2011-09-28T10:53:59Z</time></trkpt><trkpt lat="51.836378" lon="-1.725871"><ele>103.48</ele><time>2011-09-28T10:54:08Z</time></trkpt><trkpt lat="51.836296" lon="-1.725817"><ele>103.96</ele><time>2011-09-28T10:54:17Z</time></trkpt><trkpt lat="51.836194" lon="-1.725730"><ele>105.40</ele><time>2011-09-28T10:54:28Z</time></trkpt><trkpt lat="51.836108" lon="-1.725635"><ele>104.92</ele><time>2011-09-28T10:54:38Z</time></trkpt><trkpt lat="51.836028" lon="-1.725545"><ele>104.92</ele><time>2011-09-28T10:54:48Z</time></trkpt><trkpt lat="51.835959" lon="-1.725489"><ele>104.92</ele><time>2011-09-28T10:54:56Z</time></trkpt><trkpt lat="51.835867" lon="-1.725417"><ele>104.44</ele><time>2011-09-28T10:55:05Z</time></trkpt><trkpt lat="51.835766" lon="-1.725301"><ele>103.96</ele><time>2011-09-28T10:55:17Z</time></trkpt><trkpt lat="51.835748" lon="-1.725265"><ele>103.48</ele><time>2011-09-28T10:55:20Z</time></trkpt><trkpt lat="51.835786" lon="-1.725126"><ele>103.96</ele><time>2011-09-28T10:55:30Z</time></trkpt><trkpt lat="51.835806" lon="-1.725056"><ele>104.44</ele><time>2011-09-28T10:55:37Z</time></trkpt><trkpt lat="51.835830" lon="-1.725017"><ele>105.40</ele><time>2011-09-28T10:55:44Z</time></trkpt><trkpt lat="51.835894" lon="-1.724948"><ele>105.40</ele><time>2011-09-28T10:55:53Z</time></trkpt><trkpt lat="51.835917" lon="-1.724839"><ele>105.40</ele><time>2011-09-28T10:56:01Z</time></trkpt><trkpt lat="51.835948" lon="-1.724750"><ele>105.40</ele><time>2011-09-28T10:56:10Z</time></trkpt><trkpt lat="51.835997" lon="-1.724680"><ele>106.84</ele><time>2011-09-28T10:56:18Z</time></trkpt><trkpt lat="51.836034" lon="-1.724588"><ele>108.29</ele><time>2011-09-28T10:56:25Z</time></trkpt><trkpt lat="51.836081" lon="-1.724453"><ele>108.77</ele><time>2011-09-28T10:56:34Z</time></trkpt><trkpt lat="51.836126" lon="-1.724298"><ele>109.73</ele><time>2011-09-28T10:56:45Z</time></trkpt><trkpt lat="51.836168" lon="-1.724198"><ele>110.69</ele><time>2011-09-28T10:56:54Z</time></trkpt><trkpt lat="51.836211" lon="-1.724113"><ele>112.61</ele><time>2011-09-28T10:57:03Z</time></trkpt><trkpt lat="51.836281" lon="-1.723993"><ele>116.46</ele><time>2011-09-28T10:57:14Z</time></trkpt><trkpt lat="51.836357" lon="-1.723849"><ele>120.30</ele><time>2011-09-28T10:57:25Z</time></trkpt><trkpt lat="51.836414" lon="-1.723737"><ele>125.59</ele><time>2011-09-28T10:57:34Z</time></trkpt><trkpt lat="51.836460" lon="-1.723648"><ele>128.47</ele><time>2011-09-28T10:57:41Z</time></trkpt><trkpt lat="51.836502" lon="-1.723562"><ele>131.36</ele><time>2011-09-28T10:57:48Z</time></trkpt><trkpt lat="51.836592" lon="-1.723443"><ele>136.64</ele><time>2011-09-28T10:57:59Z</time></trkpt><trkpt lat="51.836654" lon="-1.723331"><ele>140.49</ele><time>2011-09-28T10:58:10Z</time></trkpt><trkpt lat="51.836691" lon="-1.723239"><ele>141.93</ele><time>2011-09-28T10:58:17Z</time></trkpt><trkpt lat="51.836741" lon="-1.723143"><ele>143.37</ele><time>2011-09-28T10:58:25Z</time></trkpt><trkpt lat="51.836784" lon="-1.723054"><ele>144.82</ele><time>2011-09-28T10:58:33Z</time></trkpt><trkpt lat="51.836809" lon="-1.722957"><ele>143.85</ele><time>2011-09-28T10:58:41Z</time></trkpt><trkpt lat="51.836825" lon="-1.722837"><ele>142.41</ele><time>2011-09-28T10:58:51Z</time></trkpt><trkpt lat="51.836865" lon="-1.722749"><ele>143.37</ele><time>2011-09-28T10:58:59Z</time></trkpt><trkpt lat="51.836929" lon="-1.722641"><ele>145.30</ele><time>2011-09-28T10:59:08Z</time></trkpt><trkpt lat="51.836948" lon="-1.722548"><ele>143.37</ele><time>2011-09-28T10:59:16Z</time></trkpt><trkpt lat="51.836962" lon="-1.722447"><ele>140.97</ele><time>2011-09-28T10:59:24Z</time></trkpt><trkpt lat="51.837005" lon="-1.722325"><ele>140.01</ele><time>2011-09-28T10:59:34Z</time></trkpt><trkpt lat="51.837034" lon="-1.722247"><ele>143.37</ele><time>2011-09-28T10:59:42Z</time></trkpt><trkpt lat="51.837052" lon="-1.722218"><ele>144.82</ele><time>2011-09-28T10:59:53Z</time></trkpt><trkpt lat="51.837097" lon="-1.722049"><ele>143.85</ele><time>2011-09-28T11:00:04Z</time></trkpt><trkpt lat="51.837133" lon="-1.722031"><ele>142.41</ele><time>2011-09-28T11:00:13Z</time></trkpt><trkpt lat="51.837136" lon="-1.722044"><ele>141.45</ele><time>2011-09-28T11:00:25Z</time></trkpt><trkpt lat="51.837135" lon="-1.722044"><ele>141.45</ele><time>2011-09-28T11:00:58Z</time></trkpt><trkpt lat="51.837155" lon="-1.722026"><ele>140.49</ele><time>2011-09-28T11:01:14Z</time></trkpt><trkpt lat="51.837234" lon="-1.721959"><ele>140.01</ele><time>2011-09-28T11:01:25Z</time></trkpt><trkpt lat="51.837251" lon="-1.721954"><ele>139.05</ele><time>2011-09-28T11:01:27Z</time></trkpt><trkpt lat="51.837284" lon="-1.721913"><ele>134.72</ele><time>2011-09-28T11:01:35Z</time></trkpt><trkpt lat="51.837358" lon="-1.721917"><ele>130.88</ele><time>2011-09-28T11:01:44Z</time></trkpt><trkpt lat="51.837455" lon="-1.721867"><ele>129.43</ele><time>2011-09-28T11:01:53Z</time></trkpt><trkpt lat="51.837564" lon="-1.721835"><ele>128.47</ele><time>2011-09-28T11:02:03Z</time></trkpt><trkpt lat="51.837681" lon="-1.721782"><ele>128.47</ele><time>2011-09-28T11:02:14Z</time></trkpt><trkpt lat="51.837775" lon="-1.721707"><ele>128.95</ele><time>2011-09-28T11:02:24Z</time></trkpt><trkpt lat="51.837844" lon="-1.721595"><ele>128.47</ele><time>2011-09-28T11:02:33Z</time></trkpt><trkpt lat="51.837886" lon="-1.721425"><ele>129.43</ele><time>2011-09-28T11:02:44Z</time></trkpt><trkpt lat="51.837900" lon="-1.721266"><ele>129.43</ele><time>2011-09-28T11:02:54Z</time></trkpt><trkpt lat="51.837933" lon="-1.721095"><ele>130.88</ele><time>2011-09-28T11:03:04Z</time></trkpt><trkpt lat="51.837966" lon="-1.720925"><ele>131.84</ele><time>2011-09-28T11:03:15Z</time></trkpt><trkpt lat="51.837988" lon="-1.720783"><ele>131.84</ele><time>2011-09-28T11:03:25Z</time></trkpt><trkpt lat="51.838022" lon="-1.720592"><ele>132.32</ele><time>2011-09-28T11:03:37Z</time></trkpt><trkpt lat="51.838056" lon="-1.720428"><ele>132.80</ele><time>2011-09-28T11:03:47Z</time></trkpt><trkpt lat="51.838086" lon="-1.720274"><ele>133.28</ele><time>2011-09-28T11:03:58Z</time></trkpt><trkpt lat="51.838107" lon="-1.720124"><ele>130.40</ele><time>2011-09-28T11:04:08Z</time></trkpt><trkpt lat="51.838132" lon="-1.720002"><ele>132.80</ele><time>2011-09-28T11:04:17Z</time></trkpt><trkpt lat="51.838161" lon="-1.719964"><ele>134.24</ele><time>2011-09-28T11:04:23Z</time></trkpt><trkpt lat="51.838211" lon="-1.719948"><ele>136.64</ele><time>2011-09-28T11:04:30Z</time></trkpt><trkpt lat="51.838296" lon="-1.719980"><ele>135.68</ele><time>2011-09-28T11:04:39Z</time></trkpt><trkpt lat="51.838336" lon="-1.720016"><ele>135.68</ele><time>2011-09-28T11:04:46Z</time></trkpt><trkpt lat="51.838401" lon="-1.720054"><ele>135.68</ele><time>2011-09-28T11:04:54Z</time></trkpt><trkpt lat="51.838438" lon="-1.720066"><ele>135.68</ele><time>2011-09-28T11:05:02Z</time></trkpt><trkpt lat="51.838501" lon="-1.720087"><ele>136.16</ele><time>2011-09-28T11:05:09Z</time></trkpt><trkpt lat="51.838591" lon="-1.720129"><ele>136.16</ele><time>2011-09-28T11:05:18Z</time></trkpt><trkpt lat="51.838688" lon="-1.720162"><ele>136.16</ele><time>2011-09-28T11:05:28Z</time></trkpt><trkpt lat="51.838734" lon="-1.720177"><ele>135.68</ele><time>2011-09-28T11:05:36Z</time></trkpt><trkpt lat="51.838824" lon="-1.720203"><ele>135.68</ele><time>2011-09-28T11:05:45Z</time></trkpt><trkpt lat="51.838909" lon="-1.720219"><ele>136.64</ele><time>2011-09-28T11:05:53Z</time></trkpt><trkpt lat="51.839002" lon="-1.720261"><ele>136.16</ele><time>2011-09-28T11:06:03Z</time></trkpt><trkpt lat="51.839089" lon="-1.720285"><ele>136.64</ele><time>2011-09-28T11:06:13Z</time></trkpt><trkpt lat="51.839150" lon="-1.720302"><ele>137.13</ele><time>2011-09-28T11:06:21Z</time></trkpt><trkpt lat="51.839153" lon="-1.720288"><ele>136.64</ele><time>2011-09-28T11:06:25Z</time></trkpt><trkpt lat="51.839163" lon="-1.720095"><ele>137.13</ele><time>2011-09-28T11:06:36Z</time></trkpt><trkpt lat="51.839195" lon="-1.719944"><ele>137.13</ele><time>2011-09-28T11:06:45Z</time></trkpt><trkpt lat="51.839223" lon="-1.719767"><ele>136.64</ele><time>2011-09-28T11:06:57Z</time></trkpt><trkpt lat="51.839237" lon="-1.719704"><ele>136.64</ele><time>2011-09-28T11:07:04Z</time></trkpt><trkpt lat="51.839277" lon="-1.719676"><ele>139.05</ele><time>2011-09-28T11:07:12Z</time></trkpt><trkpt lat="51.839272" lon="-1.719680"><ele>139.05</ele><time>2011-09-28T11:07:15Z</time></trkpt><trkpt lat="51.839254" lon="-1.719738"><ele>138.09</ele><time>2011-09-28T11:07:24Z</time></trkpt><trkpt lat="51.839255" lon="-1.719735"><ele>137.61</ele><time>2011-09-28T11:07:44Z</time></trkpt><trkpt lat="51.839257" lon="-1.719724"><ele>137.13</ele><time>2011-09-28T11:07:56Z</time></trkpt><trkpt lat="51.839266" lon="-1.719702"><ele>136.64</ele><time>2011-09-28T11:08:05Z</time></trkpt><trkpt lat="51.839275" lon="-1.719682"><ele>136.64</ele><time>2011-09-28T11:08:16Z</time></trkpt><trkpt lat="51.839309" lon="-1.719659"><ele>137.61</ele><time>2011-09-28T11:08:26Z</time></trkpt><trkpt lat="51.839343" lon="-1.719646"><ele>138.09</ele><time>2011-09-28T11:08:33Z</time></trkpt><trkpt lat="51.839363" lon="-1.719630"><ele>138.09</ele><time>2011-09-28T11:08:36Z</time></trkpt><trkpt lat="51.839449" lon="-1.719636"><ele>139.05</ele><time>2011-09-28T11:08:46Z</time></trkpt><trkpt lat="51.839515" lon="-1.719611"><ele>138.09</ele><time>2011-09-28T11:08:54Z</time></trkpt><trkpt lat="51.839601" lon="-1.719583"><ele>136.16</ele><time>2011-09-28T11:09:04Z</time></trkpt><trkpt lat="51.839703" lon="-1.719614"><ele>135.20</ele><time>2011-09-28T11:09:14Z</time></trkpt><trkpt lat="51.839813" lon="-1.719617"><ele>137.13</ele><time>2011-09-28T11:09:25Z</time></trkpt><trkpt lat="51.839893" lon="-1.719594"><ele>138.09</ele><time>2011-09-28T11:09:34Z</time></trkpt><trkpt lat="51.839984" lon="-1.719593"><ele>139.53</ele><time>2011-09-28T11:09:44Z</time></trkpt><trkpt lat="51.840067" lon="-1.719594"><ele>140.01</ele><time>2011-09-28T11:09:54Z</time></trkpt><trkpt lat="51.840145" lon="-1.719576"><ele>140.01</ele><time>2011-09-28T11:10:03Z</time></trkpt><trkpt lat="51.840215" lon="-1.719567"><ele>140.01</ele><time>2011-09-28T11:10:12Z</time></trkpt><trkpt lat="51.840285" lon="-1.719559"><ele>140.97</ele><time>2011-09-28T11:10:21Z</time></trkpt><trkpt lat="51.840372" lon="-1.719554"><ele>140.97</ele><time>2011-09-28T11:10:31Z</time></trkpt><trkpt lat="51.840468" lon="-1.719534"><ele>140.49</ele><time>2011-09-28T11:10:41Z</time></trkpt><trkpt lat="51.840526" lon="-1.719441"><ele>140.01</ele><time>2011-09-28T11:10:50Z</time></trkpt><trkpt lat="51.840539" lon="-1.719359"><ele>140.01</ele><time>2011-09-28T11:10:59Z</time></trkpt><trkpt lat="51.840559" lon="-1.719268"><ele>141.45</ele><time>2011-09-28T11:11:07Z</time></trkpt><trkpt lat="51.840562" lon="-1.719201"><ele>141.93</ele><time>2011-09-28T11:11:15Z</time></trkpt><trkpt lat="51.840525" lon="-1.719229"><ele>141.45</ele><time>2011-09-28T11:11:24Z</time></trkpt><trkpt lat="51.840524" lon="-1.719220"><ele>140.97</ele><time>2011-09-28T11:11:36Z</time></trkpt><trkpt lat="51.840526" lon="-1.719223"><ele>139.53</ele><time>2011-09-28T11:11:49Z</time></trkpt><trkpt lat="51.840530" lon="-1.719209"><ele>139.53</ele><time>2011-09-28T11:11:53Z</time></trkpt><trkpt lat="51.840579" lon="-1.719007"><ele>140.97</ele><time>2011-09-28T11:12:03Z</time></trkpt><trkpt lat="51.840608" lon="-1.718815"><ele>141.93</ele><time>2011-09-28T11:12:14Z</time></trkpt><trkpt lat="51.840633" lon="-1.718630"><ele>142.89</ele><time>2011-09-28T11:12:25Z</time></trkpt><trkpt lat="51.840644" lon="-1.718494"><ele>143.85</ele><time>2011-09-28T11:12:33Z</time></trkpt><trkpt lat="51.840678" lon="-1.718273"><ele>144.34</ele><time>2011-09-28T11:12:46Z</time></trkpt><trkpt lat="51.840686" lon="-1.718177"><ele>144.82</ele><time>2011-09-28T11:12:53Z</time></trkpt><trkpt lat="51.840717" lon="-1.718019"><ele>145.30</ele><time>2011-09-28T11:13:03Z</time></trkpt><trkpt lat="51.840744" lon="-1.717848"><ele>144.82</ele><time>2011-09-28T11:13:13Z</time></trkpt><trkpt lat="51.840759" lon="-1.717680"><ele>146.26</ele><time>2011-09-28T11:13:24Z</time></trkpt><trkpt lat="51.840761" lon="-1.717622"><ele>147.22</ele><time>2011-09-28T11:13:31Z</time></trkpt><trkpt lat="51.840751" lon="-1.717613"><ele>145.78</ele><time>2011-09-28T11:13:43Z</time></trkpt><trkpt lat="51.840755" lon="-1.717614"><ele>145.30</ele><time>2011-09-28T11:14:13Z</time></trkpt><trkpt lat="51.840769" lon="-1.717624"><ele>145.78</ele><time>2011-09-28T11:15:04Z</time></trkpt><trkpt lat="51.840790" lon="-1.717653"><ele>145.78</ele><time>2011-09-28T11:15:13Z</time></trkpt><trkpt lat="51.840806" lon="-1.717708"><ele>145.78</ele><time>2011-09-28T11:15:23Z</time></trkpt><trkpt lat="51.840807" lon="-1.717695"><ele>146.26</ele><time>2011-09-28T11:15:30Z</time></trkpt><trkpt lat="51.840822" lon="-1.717712"><ele>146.26</ele><time>2011-09-28T11:15:36Z</time></trkpt><trkpt lat="51.840833" lon="-1.717706"><ele>147.22</ele><time>2011-09-28T11:15:45Z</time></trkpt><trkpt lat="51.840836" lon="-1.717703"><ele>147.22</ele><time>2011-09-28T11:15:55Z</time></trkpt><trkpt lat="51.840866" lon="-1.717701"><ele>148.18</ele><time>2011-09-28T11:16:04Z</time></trkpt><trkpt lat="51.840885" lon="-1.717700"><ele>148.66</ele><time>2011-09-28T11:16:15Z</time></trkpt><trkpt lat="51.840899" lon="-1.717634"><ele>150.10</ele><time>2011-09-28T11:16:31Z</time></trkpt><trkpt lat="51.840930" lon="-1.717564"><ele>149.14</ele><time>2011-09-28T11:16:40Z</time></trkpt><trkpt lat="51.840988" lon="-1.717511"><ele>147.70</ele><time>2011-09-28T11:16:47Z</time></trkpt><trkpt lat="51.841085" lon="-1.717404"><ele>149.62</ele><time>2011-09-28T11:16:58Z</time></trkpt><trkpt lat="51.841178" lon="-1.717269"><ele>151.54</ele><time>2011-09-28T11:17:09Z</time></trkpt><trkpt lat="51.841284" lon="-1.717128"><ele>152.51</ele><time>2011-09-28T11:17:20Z</time></trkpt><trkpt lat="51.841354" lon="-1.717050"><ele>153.95</ele><time>2011-09-28T11:17:28Z</time></trkpt><trkpt lat="51.841427" lon="-1.716888"><ele>152.99</ele><time>2011-09-28T11:17:40Z</time></trkpt><trkpt lat="51.841511" lon="-1.716786"><ele>152.99</ele><time>2011-09-28T11:17:50Z</time></trkpt><trkpt lat="51.841617" lon="-1.716675"><ele>153.47</ele><time>2011-09-28T11:18:00Z</time></trkpt><trkpt lat="51.841735" lon="-1.716528"><ele>153.95</ele><time>2011-09-28T11:18:13Z</time></trkpt><trkpt lat="51.841823" lon="-1.716430"><ele>155.87</ele><time>2011-09-28T11:18:23Z</time></trkpt><trkpt lat="51.841901" lon="-1.716341"><ele>156.83</ele><time>2011-09-28T11:18:33Z</time></trkpt><trkpt lat="51.841939" lon="-1.716280"><ele>157.31</ele><time>2011-09-28T11:18:42Z</time></trkpt><trkpt lat="51.841968" lon="-1.716226"><ele>157.79</ele><time>2011-09-28T11:18:50Z</time></trkpt><trkpt lat="51.842009" lon="-1.716187"><ele>158.27</ele><time>2011-09-28T11:18:56Z</time></trkpt><trkpt lat="51.842087" lon="-1.716083"><ele>158.75</ele><time>2011-09-28T11:19:06Z</time></trkpt><trkpt lat="51.842158" lon="-1.715998"><ele>159.72</ele><time>2011-09-28T11:19:15Z</time></trkpt><trkpt lat="51.842240" lon="-1.715896"><ele>158.75</ele><time>2011-09-28T11:19:25Z</time></trkpt><trkpt lat="51.842316" lon="-1.715787"><ele>160.20</ele><time>2011-09-28T11:19:36Z</time></trkpt><trkpt lat="51.842397" lon="-1.715682"><ele>160.68</ele><time>2011-09-28T11:19:46Z</time></trkpt><trkpt lat="51.842483" lon="-1.715577"><ele>160.68</ele><time>2011-09-28T11:19:57Z</time></trkpt><trkpt lat="51.842557" lon="-1.715467"><ele>160.20</ele><time>2011-09-28T11:20:07Z</time></trkpt><trkpt lat="51.842623" lon="-1.715395"><ele>160.20</ele><time>2011-09-28T11:20:16Z</time></trkpt><trkpt lat="51.842697" lon="-1.715331"><ele>161.64</ele><time>2011-09-28T11:20:25Z</time></trkpt><trkpt lat="51.842751" lon="-1.715277"><ele>162.60</ele><time>2011-09-28T11:20:33Z</time></trkpt><trkpt lat="51.842798" lon="-1.715215"><ele>162.60</ele><time>2011-09-28T11:20:41Z</time></trkpt><trkpt lat="51.842857" lon="-1.715143"><ele>162.60</ele><time>2011-09-28T11:20:50Z</time></trkpt><trkpt lat="51.842897" lon="-1.715091"><ele>161.16</ele><time>2011-09-28T11:20:57Z</time></trkpt><trkpt lat="51.842962" lon="-1.714987"><ele>160.20</ele><time>2011-09-28T11:21:06Z</time></trkpt><trkpt lat="51.843035" lon="-1.714890"><ele>160.20</ele><time>2011-09-28T11:21:15Z</time></trkpt><trkpt lat="51.843101" lon="-1.714830"><ele>160.20</ele><time>2011-09-28T11:21:23Z</time></trkpt><trkpt lat="51.843164" lon="-1.714736"><ele>160.68</ele><time>2011-09-28T11:21:32Z</time></trkpt><trkpt lat="51.843223" lon="-1.714646"><ele>160.68</ele><time>2011-09-28T11:21:40Z</time></trkpt><trkpt lat="51.843279" lon="-1.714560"><ele>161.16</ele><time>2011-09-28T11:21:48Z</time></trkpt><trkpt lat="51.843322" lon="-1.714459"><ele>161.64</ele><time>2011-09-28T11:21:56Z</time></trkpt><trkpt lat="51.843357" lon="-1.714378"><ele>162.12</ele><time>2011-09-28T11:22:03Z</time></trkpt><trkpt lat="51.843405" lon="-1.714292"><ele>161.64</ele><time>2011-09-28T11:22:10Z</time></trkpt><trkpt lat="51.843450" lon="-1.714172"><ele>163.08</ele><time>2011-09-28T11:22:19Z</time></trkpt><trkpt lat="51.843500" lon="-1.714067"><ele>164.52</ele><time>2011-09-28T11:22:28Z</time></trkpt><trkpt lat="51.843553" lon="-1.714013"><ele>163.56</ele><time>2011-09-28T11:22:37Z</time></trkpt><trkpt lat="51.843602" lon="-1.714014"><ele>159.72</ele><time>2011-09-28T11:22:46Z</time></trkpt><trkpt lat="51.843676" lon="-1.714018"><ele>157.79</ele><time>2011-09-28T11:22:55Z</time></trkpt><trkpt lat="51.843738" lon="-1.714005"><ele>156.35</ele><time>2011-09-28T11:23:02Z</time></trkpt><trkpt lat="51.843819" lon="-1.714011"><ele>156.35</ele><time>2011-09-28T11:23:11Z</time></trkpt><trkpt lat="51.843898" lon="-1.714009"><ele>156.35</ele><time>2011-09-28T11:23:20Z</time></trkpt><trkpt lat="51.843963" lon="-1.714007"><ele>155.39</ele><time>2011-09-28T11:23:28Z</time></trkpt><trkpt lat="51.844044" lon="-1.714006"><ele>154.43</ele><time>2011-09-28T11:23:36Z</time></trkpt><trkpt lat="51.844132" lon="-1.713996"><ele>152.99</ele><time>2011-09-28T11:23:46Z</time></trkpt><trkpt lat="51.844242" lon="-1.714007"><ele>152.03</ele><time>2011-09-28T11:23:57Z</time></trkpt><trkpt lat="51.844328" lon="-1.714006"><ele>151.54</ele><time>2011-09-28T11:24:05Z</time></trkpt><trkpt lat="51.844401" lon="-1.713984"><ele>151.54</ele><time>2011-09-28T11:24:13Z</time></trkpt><trkpt lat="51.844498" lon="-1.713969"><ele>151.54</ele><time>2011-09-28T11:24:24Z</time></trkpt><trkpt lat="51.844601" lon="-1.713952"><ele>152.03</ele><time>2011-09-28T11:24:34Z</time></trkpt><trkpt lat="51.844676" lon="-1.713969"><ele>151.54</ele><time>2011-09-28T11:24:42Z</time></trkpt><trkpt lat="51.844762" lon="-1.713976"><ele>151.54</ele><time>2011-09-28T11:24:51Z</time></trkpt><trkpt lat="51.844820" lon="-1.713984"><ele>151.54</ele><time>2011-09-28T11:24:58Z</time></trkpt><trkpt lat="51.844878" lon="-1.714001"><ele>151.06</ele><time>2011-09-28T11:25:06Z</time></trkpt><trkpt lat="51.844980" lon="-1.714030"><ele>150.58</ele><time>2011-09-28T11:25:16Z</time></trkpt><trkpt lat="51.845054" lon="-1.714019"><ele>151.54</ele><time>2011-09-28T11:25:24Z</time></trkpt><trkpt lat="51.845138" lon="-1.713999"><ele>151.06</ele><time>2011-09-28T11:25:33Z</time></trkpt><trkpt lat="51.845239" lon="-1.714013"><ele>149.62</ele><time>2011-09-28T11:25:43Z</time></trkpt><trkpt lat="51.845338" lon="-1.714023"><ele>148.66</ele><time>2011-09-28T11:25:53Z</time></trkpt><trkpt lat="51.845412" lon="-1.714057"><ele>149.14</ele><time>2011-09-28T11:26:01Z</time></trkpt><trkpt lat="51.845479" lon="-1.714074"><ele>149.62</ele><time>2011-09-28T11:26:08Z</time></trkpt><trkpt lat="51.845571" lon="-1.714067"><ele>152.51</ele><time>2011-09-28T11:26:17Z</time></trkpt><trkpt lat="51.845656" lon="-1.714077"><ele>152.51</ele><time>2011-09-28T11:26:25Z</time></trkpt><trkpt lat="51.845748" lon="-1.714110"><ele>151.06</ele><time>2011-09-28T11:26:34Z</time></trkpt><trkpt lat="51.845775" lon="-1.714113"><ele>151.06</ele><time>2011-09-28T11:26:37Z</time></trkpt><trkpt lat="51.845851" lon="-1.714156"><ele>151.06</ele><time>2011-09-28T11:26:46Z</time></trkpt><trkpt lat="51.845919" lon="-1.714195"><ele>150.58</ele><time>2011-09-28T11:26:54Z</time></trkpt><trkpt lat="51.845972" lon="-1.714198"><ele>150.58</ele><time>2011-09-28T11:27:00Z</time></trkpt><trkpt lat="51.846095" lon="-1.714224"><ele>155.39</ele><time>2011-09-28T11:27:13Z</time></trkpt><trkpt lat="51.846151" lon="-1.714236"><ele>160.20</ele><time>2011-09-28T11:27:20Z</time></trkpt><trkpt lat="51.846241" lon="-1.714234"><ele>167.41</ele><time>2011-09-28T11:27:34Z</time></trkpt><trkpt lat="51.846336" lon="-1.714221"><ele>169.33</ele><time>2011-09-28T11:27:45Z</time></trkpt><trkpt lat="51.846422" lon="-1.714198"><ele>166.93</ele><time>2011-09-28T11:27:56Z</time></trkpt><trkpt lat="51.846506" lon="-1.714210"><ele>164.04</ele><time>2011-09-28T11:28:05Z</time></trkpt><trkpt lat="51.846699" lon="-1.714177"><ele>160.20</ele><time>2011-09-28T11:28:15Z</time></trkpt><trkpt lat="51.846800" lon="-1.714173"><ele>160.20</ele><time>2011-09-28T11:28:24Z</time></trkpt><trkpt lat="51.846873" lon="-1.714184"><ele>160.20</ele><time>2011-09-28T11:28:33Z</time></trkpt><trkpt lat="51.846956" lon="-1.714203"><ele>161.16</ele><time>2011-09-28T11:28:42Z</time></trkpt><trkpt lat="51.847058" lon="-1.714217"><ele>161.16</ele><time>2011-09-28T11:28:51Z</time></trkpt><trkpt lat="51.847131" lon="-1.714233"><ele>160.20</ele><time>2011-09-28T11:28:58Z</time></trkpt><trkpt lat="51.847212" lon="-1.714240"><ele>160.20</ele><time>2011-09-28T11:29:07Z</time></trkpt><trkpt lat="51.847325" lon="-1.714233"><ele>159.24</ele><time>2011-09-28T11:29:18Z</time></trkpt><trkpt lat="51.847392" lon="-1.714242"><ele>159.72</ele><time>2011-09-28T11:29:24Z</time></trkpt><trkpt lat="51.847462" lon="-1.714263"><ele>159.24</ele><time>2011-09-28T11:29:32Z</time></trkpt><trkpt lat="51.847520" lon="-1.714290"><ele>158.27</ele><time>2011-09-28T11:29:38Z</time></trkpt><trkpt lat="51.847586" lon="-1.714330"><ele>157.31</ele><time>2011-09-28T11:29:44Z</time></trkpt><trkpt lat="51.847673" lon="-1.714371"><ele>158.27</ele><time>2011-09-28T11:29:52Z</time></trkpt><trkpt lat="51.847742" lon="-1.714398"><ele>157.31</ele><time>2011-09-28T11:30:00Z</time></trkpt><trkpt lat="51.847780" lon="-1.714414"><ele>156.35</ele><time>2011-09-28T11:30:05Z</time></trkpt><trkpt lat="51.847856" lon="-1.714414"><ele>155.87</ele><time>2011-09-28T11:30:12Z</time></trkpt><trkpt lat="51.847952" lon="-1.714433"><ele>154.91</ele><time>2011-09-28T11:30:21Z</time></trkpt><trkpt lat="51.848054" lon="-1.714469"><ele>156.83</ele><time>2011-09-28T11:30:29Z</time></trkpt><trkpt lat="51.848213" lon="-1.714474"><ele>158.75</ele><time>2011-09-28T11:30:42Z</time></trkpt><trkpt lat="51.848332" lon="-1.714451"><ele>159.24</ele><time>2011-09-28T11:30:52Z</time></trkpt><trkpt lat="51.848420" lon="-1.714457"><ele>159.24</ele><time>2011-09-28T11:31:01Z</time></trkpt><trkpt lat="51.848526" lon="-1.714461"><ele>160.20</ele><time>2011-09-28T11:31:11Z</time></trkpt><trkpt lat="51.848588" lon="-1.714464"><ele>161.64</ele><time>2011-09-28T11:31:18Z</time></trkpt><trkpt lat="51.848656" lon="-1.714459"><ele>162.60</ele><time>2011-09-28T11:31:26Z</time></trkpt><trkpt lat="51.848732" lon="-1.714459"><ele>163.08</ele><time>2011-09-28T11:31:34Z</time></trkpt><trkpt lat="51.848816" lon="-1.714457"><ele>164.04</ele><time>2011-09-28T11:31:43Z</time></trkpt><trkpt lat="51.848896" lon="-1.714449"><ele>164.04</ele><time>2011-09-28T11:31:52Z</time></trkpt><trkpt lat="51.848963" lon="-1.714444"><ele>163.56</ele><time>2011-09-28T11:32:00Z</time></trkpt><trkpt lat="51.849016" lon="-1.714441"><ele>163.08</ele><time>2011-09-28T11:32:07Z</time></trkpt><trkpt lat="51.849041" lon="-1.714474"><ele>164.04</ele><time>2011-09-28T11:32:14Z</time></trkpt><trkpt lat="51.849062" lon="-1.714469"><ele>165.48</ele><time>2011-09-28T11:32:31Z</time></trkpt><trkpt lat="51.849192" lon="-1.714439"><ele>164.52</ele><time>2011-09-28T11:32:41Z</time></trkpt><trkpt lat="51.849270" lon="-1.714434"><ele>164.52</ele><time>2011-09-28T11:32:48Z</time></trkpt><trkpt lat="51.849377" lon="-1.714439"><ele>165.00</ele><time>2011-09-28T11:32:58Z</time></trkpt><trkpt lat="51.849452" lon="-1.714423"><ele>163.08</ele><time>2011-09-28T11:33:04Z</time></trkpt><trkpt lat="51.849576" lon="-1.714375"><ele>161.64</ele><time>2011-09-28T11:33:15Z</time></trkpt><trkpt lat="51.849614" lon="-1.714396"><ele>163.56</ele><time>2011-09-28T11:33:23Z</time></trkpt><trkpt lat="51.849701" lon="-1.714382"><ele>162.60</ele><time>2011-09-28T11:33:32Z</time></trkpt><trkpt lat="51.849783" lon="-1.714361"><ele>161.64</ele><time>2011-09-28T11:33:40Z</time></trkpt><trkpt lat="51.849884" lon="-1.714355"><ele>163.08</ele><time>2011-09-28T11:33:49Z</time></trkpt><trkpt lat="51.849987" lon="-1.714358"><ele>163.08</ele><time>2011-09-28T11:33:59Z</time></trkpt><trkpt lat="51.850088" lon="-1.714349"><ele>163.08</ele><time>2011-09-28T11:34:09Z</time></trkpt><trkpt lat="51.850183" lon="-1.714332"><ele>161.16</ele><time>2011-09-28T11:34:19Z</time></trkpt><trkpt lat="51.850274" lon="-1.714311"><ele>161.16</ele><time>2011-09-28T11:34:28Z</time></trkpt><trkpt lat="51.850325" lon="-1.714309"><ele>161.16</ele><time>2011-09-28T11:34:33Z</time></trkpt><trkpt lat="51.850403" lon="-1.714301"><ele>159.24</ele><time>2011-09-28T11:34:43Z</time></trkpt><trkpt lat="51.850523" lon="-1.714276"><ele>161.16</ele><time>2011-09-28T11:34:54Z</time></trkpt><trkpt lat="51.850615" lon="-1.714263"><ele>163.56</ele><time>2011-09-28T11:35:03Z</time></trkpt><trkpt lat="51.850724" lon="-1.714221"><ele>164.52</ele><time>2011-09-28T11:35:13Z</time></trkpt><trkpt lat="51.850793" lon="-1.714195"><ele>165.00</ele><time>2011-09-28T11:35:22Z</time></trkpt><trkpt lat="51.850877" lon="-1.714153"><ele>162.60</ele><time>2011-09-28T11:35:31Z</time></trkpt><trkpt lat="51.850970" lon="-1.714140"><ele>161.16</ele><time>2011-09-28T11:35:39Z</time></trkpt><trkpt lat="51.851056" lon="-1.714126"><ele>160.68</ele><time>2011-09-28T11:35:46Z</time></trkpt><trkpt lat="51.851174" lon="-1.714104"><ele>157.79</ele><time>2011-09-28T11:35:56Z</time></trkpt><trkpt lat="51.851279" lon="-1.714122"><ele>156.83</ele><time>2011-09-28T11:36:05Z</time></trkpt><trkpt lat="51.851386" lon="-1.714131"><ele>154.43</ele><time>2011-09-28T11:36:15Z</time></trkpt><trkpt lat="51.851477" lon="-1.714154"><ele>153.95</ele><time>2011-09-28T11:36:22Z</time></trkpt><trkpt lat="51.851577" lon="-1.714172"><ele>152.51</ele><time>2011-09-28T11:36:31Z</time></trkpt><trkpt lat="51.851677" lon="-1.714182"><ele>152.03</ele><time>2011-09-28T11:36:40Z</time></trkpt><trkpt lat="51.851764" lon="-1.714218"><ele>155.87</ele><time>2011-09-28T11:36:48Z</time></trkpt><trkpt lat="51.851886" lon="-1.714254"><ele>162.12</ele><time>2011-09-28T11:37:00Z</time></trkpt><trkpt lat="51.851919" lon="-1.714234"><ele>163.56</ele><time>2011-09-28T11:37:05Z</time></trkpt><trkpt lat="51.851937" lon="-1.714252"><ele>164.52</ele><time>2011-09-28T11:37:08Z</time></trkpt><trkpt lat="51.852035" lon="-1.714257"><ele>165.48</ele><time>2011-09-28T11:37:17Z</time></trkpt><trkpt lat="51.852110" lon="-1.714262"><ele>165.96</ele><time>2011-09-28T11:37:24Z</time></trkpt><trkpt lat="51.852152" lon="-1.714296"><ele>165.48</ele><time>2011-09-28T11:37:29Z</time></trkpt><trkpt lat="51.852264" lon="-1.714269"><ele>167.89</ele><time>2011-09-28T11:37:40Z</time></trkpt><trkpt lat="51.852293" lon="-1.714235"><ele>168.85</ele><time>2011-09-28T11:37:49Z</time></trkpt><trkpt lat="51.852356" lon="-1.714201"><ele>168.37</ele><time>2011-09-28T11:37:59Z</time></trkpt><trkpt lat="51.852535" lon="-1.714131"><ele>161.16</ele><time>2011-09-28T11:38:10Z</time></trkpt><trkpt lat="51.852605" lon="-1.714048"><ele>163.56</ele><time>2011-09-28T11:38:17Z</time></trkpt><trkpt lat="51.852629" lon="-1.713886"><ele>165.96</ele><time>2011-09-28T11:38:26Z</time></trkpt><trkpt lat="51.852652" lon="-1.713677"><ele>166.93</ele><time>2011-09-28T11:38:36Z</time></trkpt><trkpt lat="51.852658" lon="-1.713515"><ele>167.41</ele><time>2011-09-28T11:38:45Z</time></trkpt><trkpt lat="51.852659" lon="-1.713496"><ele>167.41</ele><time>2011-09-28T11:38:46Z</time></trkpt><trkpt lat="51.852706" lon="-1.713296"><ele>167.41</ele><time>2011-09-28T11:38:56Z</time></trkpt><trkpt lat="51.852731" lon="-1.713102"><ele>167.41</ele><time>2011-09-28T11:39:06Z</time></trkpt><trkpt lat="51.852738" lon="-1.713073"><ele>167.41</ele><time>2011-09-28T11:39:08Z</time></trkpt><trkpt lat="51.852778" lon="-1.712938"><ele>167.41</ele><time>2011-09-28T11:39:17Z</time></trkpt><trkpt lat="51.852828" lon="-1.712800"><ele>166.93</ele><time>2011-09-28T11:39:26Z</time></trkpt><trkpt lat="51.852856" lon="-1.712729"><ele>165.00</ele><time>2011-09-28T11:39:29Z</time></trkpt><trkpt lat="51.852952" lon="-1.712553"><ele>163.56</ele><time>2011-09-28T11:39:40Z</time></trkpt><trkpt lat="51.852992" lon="-1.712428"><ele>163.56</ele><time>2011-09-28T11:39:48Z</time></trkpt><trkpt lat="51.853083" lon="-1.712256"><ele>165.96</ele><time>2011-09-28T11:40:00Z</time></trkpt><trkpt lat="51.853155" lon="-1.712093"><ele>166.93</ele><time>2011-09-28T11:40:11Z</time></trkpt><trkpt lat="51.853170" lon="-1.712067"><ele>166.93</ele><time>2011-09-28T11:40:13Z</time></trkpt><trkpt lat="51.853287" lon="-1.711914"><ele>168.37</ele><time>2011-09-28T11:40:25Z</time></trkpt><trkpt lat="51.853360" lon="-1.711818"><ele>167.89</ele><time>2011-09-28T11:40:32Z</time></trkpt><trkpt lat="51.853426" lon="-1.711742"><ele>168.37</ele><time>2011-09-28T11:40:39Z</time></trkpt><trkpt lat="51.853529" lon="-1.711610"><ele>165.00</ele><time>2011-09-28T11:40:49Z</time></trkpt><trkpt lat="51.853622" lon="-1.711607"><ele>165.00</ele><time>2011-09-28T11:40:57Z</time></trkpt><trkpt lat="51.853669" lon="-1.711555"><ele>163.56</ele><time>2011-09-28T11:41:03Z</time></trkpt><trkpt lat="51.853782" lon="-1.711461"><ele>163.56</ele><time>2011-09-28T11:41:14Z</time></trkpt><trkpt lat="51.853815" lon="-1.711464"><ele>163.56</ele><time>2011-09-28T11:41:16Z</time></trkpt><trkpt lat="51.853916" lon="-1.711459"><ele>165.48</ele><time>2011-09-28T11:41:25Z</time></trkpt><trkpt lat="51.853926" lon="-1.711459"><ele>165.48</ele><time>2011-09-28T11:41:26Z</time></trkpt><trkpt lat="51.854061" lon="-1.711514"><ele>166.45</ele><time>2011-09-28T11:41:38Z</time></trkpt><trkpt lat="51.854110" lon="-1.711521"><ele>167.89</ele><time>2011-09-28T11:41:46Z</time></trkpt><trkpt lat="51.854132" lon="-1.711530"><ele>168.85</ele><time>2011-09-28T11:41:53Z</time></trkpt></trkseg></trk></gpx>